Observation data for Fritch on 05/28/2019      Previous  Date  Next       Current Mesonet Observations  Soil Data  Daily Summary Page  Observations in Plain Language
KFR1 280500Z 17018G25KT 23/19 A2965 RMK A01 T02280185  RH  077%=      5-min Rain = 0
KFR1 280501Z 17017G22KT 23/19 A2965 RMK A01 T02280185  RH  077%=      5-min Rain = 0
KFR1 280502Z 17018G27KT 23/19 A2965 RMK A01 T02280185  RH  077%=      5-min Rain = 0
KFR1 280503Z 17018G23KT 23/19 A2965 RMK A01 T02280185  RH  077%=      5-min Rain = 0
KFR1 280504Z 17017KT 23/19 A2965 RMK A01 T02280186  RH  077%=      5-min Rain = 0
KFR1 280505Z 17018G23KT 23/19 A2965 RMK A01 T02280186  RH  077%=      5-min Rain = 0
KFR1 280506Z 17016G22KT 23/19 A2966 RMK A01 T02280186  RH  077%=      5-min Rain = 0
KFR1 280507Z 17018G23KT 23/19 A2965 RMK A01 T02280186  RH  077%=      5-min Rain = 0
KFR1 280508Z 17017G23KT 23/19 A2965 RMK A01 T02280186  RH  077%=      5-min Rain = 0
KFR1 280509Z 17020G25KT 23/19 A2965 RMK A01 T02290186  RH  077%=      5-min Rain = 0
KFR1 280510Z 17020KT 23/19 A2965 RMK A01 T02300186  RH  076%=      5-min Rain = 0
KFR1 280511Z 17019G24KT 23/19 A2965 RMK A01 T02300186  RH  076%=      5-min Rain = 0
KFR1 280512Z 17021G26KT 23/19 A2965 RMK A01 T02300186  RH  076%=      5-min Rain = 0
KFR1 280513Z 17016G23KT 23/19 A2965 RMK A01 T02300186  RH  077%=      5-min Rain = 0
KFR1 280514Z 16017G22KT 23/19 A2965 RMK A01 T02290186  RH  077%=      5-min Rain = 0
KFR1 280515Z 17017G23KT 23/19 A2965 RMK A01 T02290187  RH  077%=      5-min Rain = 0
KFR1 280516Z 17018G23KT 23/19 A2965 RMK A01 T02290187  RH  077%=      5-min Rain = 0
KFR1 280517Z 17016G23KT 23/19 A2965 RMK A01 T02280187  RH  077%=      5-min Rain = 0
KFR1 280518Z 17019G24KT 23/19 A2965 RMK A01 T02280187  RH  077%=      5-min Rain = 0
KFR1 280519Z 17017KT 23/19 A2965 RMK A01 T02280187  RH  077%=      5-min Rain = 0
KFR1 280520Z 17017G23KT 23/19 A2965 RMK A01 T02280187  RH  077%=      5-min Rain = 0
KFR1 280521Z 17019G25KT 23/19 A2965 RMK A01 T02290187  RH  077%=      5-min Rain = 0
KFR1 280522Z 17017KT 23/19 A2965 RMK A01 T02280187  RH  077%=      5-min Rain = 0
KFR1 280523Z 17017G22KT 23/19 A2965 RMK A01 T02280187  RH  077%=      5-min Rain = 0
KFR1 280524Z 17017KT 23/19 A2965 RMK A01 T02280187  RH  078%=      5-min Rain = 0
KFR1 280525Z 17020G26KT 23/19 A2966 RMK A01 T02280187  RH  078%=      5-min Rain = 0
KFR1 280526Z 17019G25KT 23/19 A2966 RMK A01 T02280187  RH  077%=      5-min Rain = 0
KFR1 280527Z 17015KT 23/19 A2966 RMK A01 T02280187  RH  077%=      5-min Rain = 0
KFR1 280528Z 18017G22KT 23/19 A2966 RMK A01 T02280188  RH  078%=      5-min Rain = 0
KFR1 280529Z 18017G23KT 23/19 A2966 RMK A01 T02270187  RH  078%=      5-min Rain = 0
KFR1 280530Z 18015KT 23/19 A2966 RMK A01 T02270187  RH  078%=      5-min Rain = 0
KFR1 280531Z 18014KT 23/19 A2966 RMK A01 T02270188  RH  078%=      5-min Rain = 0
KFR1 280532Z 18014KT 23/19 A2966 RMK A01 T02270188  RH  078%=      5-min Rain = 0
KFR1 280533Z 18017KT 23/19 A2966 RMK A01 T02270188  RH  078%=      5-min Rain = 0
KFR1 280534Z 18016G21KT 23/19 A2966 RMK A01 T02270187  RH  078%=      5-min Rain = 0
KFR1 280535Z 18015G21KT 23/19 A2966 RMK A01 T02270188  RH  078%=      5-min Rain = 0
KFR1 280536Z 18015KT 23/19 A2966 RMK A01 T02270188  RH  079%=      5-min Rain = 0
KFR1 280537Z 18016KT 23/19 A2966 RMK A01 T02260188  RH  079%=      5-min Rain = 0
KFR1 280538Z 18014KT 23/19 A2966 RMK A01 T02260187  RH  079%=      5-min Rain = 0
KFR1 280539Z 18012G17KT 23/19 A2967 RMK A01 T02260188  RH  079%=      5-min Rain = 0
KFR1 280540Z 19010KT 23/19 A2967 RMK A01 T02260188  RH  079%=      5-min Rain = 0
KFR1 280541Z 19011G16KT 23/19 A2967 RMK A01 T02250188  RH  079%=      5-min Rain = 0
KFR1 280542Z 19014KT 23/19 A2967 RMK A01 T02250188  RH  079%=      5-min Rain = 0
KFR1 280543Z 19013KT 23/19 A2967 RMK A01 T02260188  RH  079%=      5-min Rain = 0
KFR1 280544Z 19013KT 23/19 A2967 RMK A01 T02260188  RH  079%=      5-min Rain = 0
KFR1 280545Z 20014G19KT 23/19 A2967 RMK A01 T02260188  RH  079%=      5-min Rain = 0
KFR1 280546Z 20012KT 23/19 A2967 RMK A01 T02260188  RH  079%=      5-min Rain = 0
KFR1 280547Z 21009KT 23/19 A2968 RMK A01 T02260188  RH  079%=      5-min Rain = 0
KFR1 280548Z 21011KT 23/19 A2968 RMK A01 T02260188  RH  079%=      5-min Rain = 0
KFR1 280549Z 22009KT 23/19 A2968 RMK A01 T02260188  RH  079%=      5-min Rain = 0
KFR1 280550Z 22011KT 23/19 A2968 RMK A01 T02250188  RH  079%=      5-min Rain = 0
KFR1 280551Z 23011KT 23/19 A2968 RMK A01 T02250188  RH  080%=      5-min Rain = 0
KFR1 280552Z 23010KT 23/19 A2968 RMK A01 T02250188  RH  080%=      5-min Rain = 0
KFR1 280553Z 23009KT 22/19 A2968 RMK A01 T02240188  RH  080%=      5-min Rain = 0
KFR1 280554Z 23010KT 22/19 A2968 RMK A01 T02240188  RH  080%=      5-min Rain = 0
KFR1 280555Z 23010KT 22/19 A2968 RMK A01 T02240188  RH  080%=      5-min Rain = 0
KFR1 280556Z 23011KT 22/19 A2968 RMK A01 T02240188  RH  080%=      5-min Rain = 0
KFR1 280557Z 23009KT 22/19 A2968 RMK A01 T02240188  RH  080%=      5-min Rain = 0
KFR1 280558Z 23009KT 22/19 A2968 RMK A01 T02240188  RH  080%=      5-min Rain = 0
KFR1 280559Z 23010G15KT 22/19 A2968 RMK A01 T02240189  RH  080%=      5-min Rain = 0
KFR1 280600Z 23011KT 22/19 A2969 RMK A01 T02240188  RH  080%=      5-min Rain = 0
KFR1 280601Z 23009KT 22/19 A2969 RMK A01 T02240188  RH  080%=      5-min Rain = 0
KFR1 280602Z 22008KT 22/19 A2969 RMK A01 T02240188  RH  080%=      5-min Rain = 0
KFR1 280603Z 23008KT 22/19 A2969 RMK A01 T02240189  RH  080%=      5-min Rain = 0
KFR1 280604Z 22008KT 22/19 A2969 RMK A01 T02240188  RH  080%=      5-min Rain = 0
KFR1 280605Z 23009KT 22/19 A2969 RMK A01 T02240188  RH  080%=      5-min Rain = 0
KFR1 280606Z 22009KT 22/19 A2969 RMK A01 T02240188  RH  080%=      5-min Rain = 0
KFR1 280607Z 22011KT 23/19 A2969 RMK A01 T02250188  RH  080%=      5-min Rain = 0
KFR1 280608Z 21010KT 23/19 A2969 RMK A01 T02250188  RH  080%=      5-min Rain = 0
KFR1 280609Z 22010KT 23/19 A2969 RMK A01 T02250188  RH  080%=      5-min Rain = 0
KFR1 280610Z 22008KT 23/19 A2969 RMK A01 T02250188  RH  080%=      5-min Rain = 0
KFR1 280611Z 21010KT 23/19 A2969 RMK A01 T02250189  RH  080%=      5-min Rain = 0
KFR1 280612Z 22011KT 22/19 A2969 RMK A01 T02240189  RH  080%=      5-min Rain = 0
KFR1 280613Z 21012KT 22/19 A2969 RMK A01 T02240189  RH  080%=      5-min Rain = 0
KFR1 280614Z 21011KT 22/19 A2969 RMK A01 T02240188  RH  080%=      5-min Rain = 0
KFR1 280615Z 20012KT 23/19 A2969 RMK A01 T02250189  RH  080%=      5-min Rain = 0
KFR1 280616Z 20012KT 23/19 A2969 RMK A01 T02250188  RH  080%=      5-min Rain = 0
KFR1 280617Z 21010KT 23/19 A2969 RMK A01 T02250189  RH  080%=      5-min Rain = 0
KFR1 280618Z 21009KT 22/19 A2969 RMK A01 T02240188  RH  080%=      5-min Rain = 0
KFR1 280619Z 20011KT 22/19 A2969 RMK A01 T02230188  RH  081%=      5-min Rain = 0
KFR1 280620Z 20011KT 22/19 A2969 RMK A01 T02230188  RH  081%=      5-min Rain = 0
KFR1 280621Z 20009KT 22/19 A2969 RMK A01 T02230188  RH  081%=      5-min Rain = 0
KFR1 280622Z 20011KT 22/19 A2969 RMK A01 T02220189  RH  081%=      5-min Rain = 0
KFR1 280623Z 20011KT 22/19 A2969 RMK A01 T02220188  RH  081%=      5-min Rain = 0
KFR1 280624Z 20012KT 22/19 A2968 RMK A01 T02220188  RH  081%=      5-min Rain = 0
KFR1 280625Z 20011KT 22/19 A2968 RMK A01 T02220188  RH  081%=      5-min Rain = 0
KFR1 280626Z 20010KT 22/19 A2968 RMK A01 T02220188  RH  081%=      5-min Rain = 0
KFR1 280627Z 20010KT 22/19 A2968 RMK A01 T02210188  RH  082%=      5-min Rain = 0
KFR1 280628Z 19010KT 22/19 A2968 RMK A01 T02210188  RH  082%=      5-min Rain = 0
KFR1 280629Z 19011KT 22/19 A2968 RMK A01 T02200188  RH  082%=      5-min Rain = 0
KFR1 280630Z 19012KT 22/19 A2968 RMK A01 T02200188  RH  082%=      5-min Rain = 0
KFR1 280631Z 20010KT 22/19 A2968 RMK A01 T02200188  RH  082%=      5-min Rain = 0
KFR1 280632Z 20009KT 22/19 A2968 RMK A01 T02200188  RH  082%=      5-min Rain = 0
KFR1 280633Z 20010KT 22/19 A2968 RMK A01 T02190188  RH  082%=      5-min Rain = 0
KFR1 280634Z 19010KT 22/19 A2968 RMK A01 T02190188  RH  083%=      5-min Rain = 0
KFR1 280635Z 20012KT 22/19 A2968 RMK A01 T02190188  RH  083%=      5-min Rain = 0
KFR1 280636Z 20011KT 22/19 A2968 RMK A01 T02200188  RH  082%=      5-min Rain = 0
KFR1 280637Z 20011KT 22/19 A2968 RMK A01 T02210188  RH  082%=      5-min Rain = 0
KFR1 280638Z 19011KT 22/19 A2968 RMK A01 T02210188  RH  082%=      5-min Rain = 0
KFR1 280639Z 19011KT 22/19 A2968 RMK A01 T02210188  RH  082%=      5-min Rain = 0
KFR1 280640Z 20012KT 22/19 A2968 RMK A01 T02210189  RH  082%=      5-min Rain = 0
KFR1 280641Z 19011KT 22/19 A2968 RMK A01 T02210188  RH  082%=      5-min Rain = 0
KFR1 280642Z 19012KT 22/19 A2968 RMK A01 T02210188  RH  081%=      5-min Rain = 0
KFR1 280643Z 19013KT 22/19 A2968 RMK A01 T02210188  RH  081%=      5-min Rain = 0
KFR1 280644Z 19014KT 22/19 A2968 RMK A01 T02220188  RH  081%=      5-min Rain = 0
KFR1 280645Z 19012KT 22/19 A2968 RMK A01 T02220188  RH  081%=      5-min Rain = 0
KFR1 280646Z 20012KT 22/19 A2968 RMK A01 T02220188  RH  081%=      5-min Rain = 0
KFR1 280647Z 20012KT 22/19 A2967 RMK A01 T02220188  RH  081%=      5-min Rain = 0
KFR1 280648Z 19014KT 22/19 A2967 RMK A01 T02220187  RH  081%=      5-min Rain = 0
KFR1 280649Z 20011KT 22/19 A2967 RMK A01 T02230188  RH  081%=      5-min Rain = 0
KFR1 280650Z 20011KT 22/19 A2967 RMK A01 T02230188  RH  081%=      5-min Rain = 0
KFR1 280651Z 20011KT 22/19 A2967 RMK A01 T02220188  RH  081%=      5-min Rain = 0
KFR1 280652Z 19011KT 22/19 A2967 RMK A01 T02220188  RH  081%=      5-min Rain = 0
KFR1 280653Z 20013KT 22/19 A2967 RMK A01 T02210187  RH  081%=      5-min Rain = 0
KFR1 280654Z 19011KT 22/19 A2967 RMK A01 T02210187  RH  081%=      5-min Rain = 0
KFR1 280655Z 19010KT 22/19 A2967 RMK A01 T02210187  RH  081%=      5-min Rain = 0
KFR1 280656Z 20010KT 22/19 A2967 RMK A01 T02210187  RH  081%=      5-min Rain = 0
KFR1 280657Z 19011KT 22/19 A2967 RMK A01 T02200187  RH  081%=      5-min Rain = 0
KFR1 280658Z 20010KT 22/19 A2967 RMK A01 T02200187  RH  081%=      5-min Rain = 0
KFR1 280659Z 19010KT 22/19 A2967 RMK A01 T02200187  RH  082%=      5-min Rain = 0
KFR1 280700Z 19011KT 22/19 A2967 RMK A01 T02190187  RH  082%=      5-min Rain = 0
KFR1 280701Z 20010KT 22/19 A2967 RMK A01 T02190187  RH  082%=      5-min Rain = 0
KFR1 280702Z 20010KT 22/19 A2968 RMK A01 T02180186  RH  082%=      5-min Rain = 0
KFR1 280703Z 20010KT 22/19 A2967 RMK A01 T02180187  RH  082%=      5-min Rain = 0
KFR1 280704Z 20009KT 22/19 A2967 RMK A01 T02180187  RH  082%=      5-min Rain = 0
KFR1 280705Z 20009KT 22/19 A2967 RMK A01 T02180187  RH  082%=      5-min Rain = 0
KFR1 280706Z 20009KT 22/19 A2967 RMK A01 T02170187  RH  083%=      5-min Rain = 0
KFR1 280707Z 20010KT 22/19 A2967 RMK A01 T02170186  RH  083%=      5-min Rain = 0
KFR1 280708Z 20008KT 22/19 A2967 RMK A01 T02170186  RH  083%=      5-min Rain = 0
KFR1 280709Z 20008KT 22/19 A2967 RMK A01 T02160186  RH  083%=      5-min Rain = 0
KFR1 280710Z 20009KT 22/19 A2967 RMK A01 T02160186  RH  083%=      5-min Rain = 0
KFR1 280711Z 21009KT 22/19 A2967 RMK A01 T02150186  RH  083%=      5-min Rain = 0
KFR1 280712Z 20008KT 22/19 A2967 RMK A01 T02160186  RH  083%=      5-min Rain = 0
KFR1 280713Z 20008KT 22/19 A2967 RMK A01 T02160185  RH  083%=      5-min Rain = 0
KFR1 280714Z 20008KT 22/19 A2967 RMK A01 T02150186  RH  083%=      5-min Rain = 0
KFR1 280715Z 21009KT 22/19 A2967 RMK A01 T02150185  RH  083%=      5-min Rain = 0
KFR1 280716Z 21009KT 22/19 A2967 RMK A01 T02150185  RH  083%=      5-min Rain = 0
KFR1 280717Z 21010KT 22/19 A2967 RMK A01 T02160185  RH  083%=      5-min Rain = 0
KFR1 280718Z 21010KT 22/19 A2967 RMK A01 T02160185  RH  082%=      5-min Rain = 0
KFR1 280719Z 20010KT 22/19 A2967 RMK A01 T02170185  RH  082%=      5-min Rain = 0
KFR1 280720Z 21011KT 22/19 A2967 RMK A01 T02170185  RH  082%=      5-min Rain = 0
KFR1 280721Z 21013KT 22/19 A2967 RMK A01 T02170185  RH  082%=      5-min Rain = 0
KFR1 280722Z 21012KT 22/19 A2967 RMK A01 T02190185  RH  081%=      5-min Rain = 0
KFR1 280723Z 21010KT 22/19 A2967 RMK A01 T02200185  RH  081%=      5-min Rain = 0
KFR1 280724Z 21011KT 22/19 A2967 RMK A01 T02190185  RH  081%=      5-min Rain = 0
KFR1 280725Z 21011KT 22/19 A2967 RMK A01 T02190185  RH  081%=      5-min Rain = 0
KFR1 280726Z 20010KT 22/19 A2967 RMK A01 T02200185  RH  081%=      5-min Rain = 0
KFR1 280727Z 21011KT 22/19 A2967 RMK A01 T02190185  RH  081%=      5-min Rain = 0
KFR1 280728Z 21012KT 22/19 A2967 RMK A01 T02200185  RH  080%=      5-min Rain = 0
KFR1 280729Z 21010KT 22/18 A2967 RMK A01 T02200184  RH  080%=      5-min Rain = 0
KFR1 280730Z 21012KT 22/18 A2967 RMK A01 T02200184  RH  080%=      5-min Rain = 0
KFR1 280731Z 21012KT 22/19 A2967 RMK A01 T02200185  RH  080%=      5-min Rain = 0
KFR1 280732Z 21010KT 22/18 A2967 RMK A01 T02200184  RH  080%=      5-min Rain = 0
KFR1 280733Z 21010KT 22/18 A2967 RMK A01 T02200184  RH  080%=      5-min Rain = 0
KFR1 280734Z 21012KT 22/18 A2967 RMK A01 T02200184  RH  080%=      5-min Rain = 0
KFR1 280735Z 21011KT 22/18 A2967 RMK A01 T02200184  RH  080%=      5-min Rain = 0
KFR1 280736Z 21011KT 22/18 A2967 RMK A01 T02200184  RH  080%=      5-min Rain = 0
KFR1 280737Z 21011KT 22/18 A2967 RMK A01 T02200184  RH  080%=      5-min Rain = 0
KFR1 280738Z 21013KT 22/18 A2967 RMK A01 T02200184  RH  080%=      5-min Rain = 0
KFR1 280739Z 21012KT 22/18 A2967 RMK A01 T02200184  RH  080%=      5-min Rain = 0
KFR1 280740Z 21013KT 22/18 A2967 RMK A01 T02200184  RH  080%=      5-min Rain = 0
KFR1 280741Z 21012KT 22/18 A2967 RMK A01 T02200184  RH  080%=      5-min Rain = 0
KFR1 280742Z 21011KT 22/18 A2967 RMK A01 T02200184  RH  080%=      5-min Rain = 0
KFR1 280743Z 21013KT 22/18 A2967 RMK A01 T02200184  RH  080%=      5-min Rain = 0
KFR1 280744Z 21012KT 22/18 A2967 RMK A01 T02200183  RH  079%=      5-min Rain = 0
KFR1 280745Z 21012KT 22/18 A2967 RMK A01 T02210183  RH  079%=      5-min Rain = 0
KFR1 280746Z 21012KT 22/18 A2967 RMK A01 T02210184  RH  079%=      5-min Rain = 0
KFR1 280747Z 21013KT 22/18 A2967 RMK A01 T02200183  RH  080%=      5-min Rain = 0
KFR1 280748Z 21013KT 22/18 A2967 RMK A01 T02200183  RH  080%=      5-min Rain = 0
KFR1 280749Z 21012KT 22/18 A2967 RMK A01 T02200183  RH  079%=      5-min Rain = 0
KFR1 280750Z 21012KT 22/18 A2967 RMK A01 T02200183  RH  080%=      5-min Rain = 0
KFR1 280751Z 21012KT 22/18 A2967 RMK A01 T02200183  RH  079%=      5-min Rain = 0
KFR1 280752Z 21012KT 22/18 A2967 RMK A01 T02200182  RH  079%=      5-min Rain = 0
KFR1 280753Z 22011KT 22/18 A2967 RMK A01 T02200182  RH  079%=      5-min Rain = 0
KFR1 280754Z 21011KT 22/18 A2967 RMK A01 T02200182  RH  079%=      5-min Rain = 0
KFR1 280755Z 22012KT 22/18 A2967 RMK A01 T02200182  RH  079%=      5-min Rain = 0
KFR1 280756Z 22011KT 22/18 A2967 RMK A01 T02200182  RH  079%=      5-min Rain = 0
KFR1 280757Z 22011KT 22/18 A2967 RMK A01 T02190182  RH  079%=      5-min Rain = 0
KFR1 280758Z 22010KT 22/18 A2967 RMK A01 T02190182  RH  079%=      5-min Rain = 0
KFR1 280759Z 22010KT 22/18 A2967 RMK A01 T02170182  RH  080%=      5-min Rain = 0
KFR1 280800Z 22010KT 22/18 A2967 RMK A01 T02160181  RH  080%=      5-min Rain = 0
KFR1 280801Z 22010KT 22/18 A2967 RMK A01 T02160182  RH  081%=      5-min Rain = 0
KFR1 280802Z 22010KT 22/18 A2967 RMK A01 T02160181  RH  081%=      5-min Rain = 0
KFR1 280803Z 22010KT 22/18 A2967 RMK A01 T02160181  RH  081%=      5-min Rain = 0
KFR1 280804Z 22010KT 22/18 A2967 RMK A01 T02150181  RH  081%=      5-min Rain = 0
KFR1 280805Z 22012KT 21/18 A2967 RMK A01 T02140181  RH  081%=      5-min Rain = 0
KFR1 280806Z 22011KT 22/18 A2967 RMK A01 T02150181  RH  081%=      5-min Rain = 0
KFR1 280807Z 22010KT 22/18 A2967 RMK A01 T02150180  RH  081%=      5-min Rain = 0
KFR1 280808Z 22010KT 22/18 A2967 RMK A01 T02150181  RH  081%=      5-min Rain = 0
KFR1 280809Z 22010KT 22/18 A2967 RMK A01 T02150181  RH  081%=      5-min Rain = 0
KFR1 280810Z 22011KT 22/18 A2967 RMK A01 T02150181  RH  081%=      5-min Rain = 0
KFR1 280811Z 22011KT 22/18 A2967 RMK A01 T02150180  RH  081%=      5-min Rain = 0
KFR1 280812Z 22011KT 22/18 A2967 RMK A01 T02150180  RH  081%=      5-min Rain = 0
KFR1 280813Z 22011KT 21/18 A2967 RMK A01 T02140180  RH  081%=      5-min Rain = 0
KFR1 280814Z 22013KT 21/18 A2967 RMK A01 T02140180  RH  081%=      5-min Rain = 0
KFR1 280815Z 22013KT 22/18 A2967 RMK A01 T02150179  RH  080%=      5-min Rain = 0
KFR1 280816Z 22011KT 22/18 A2967 RMK A01 T02160180  RH  080%=      5-min Rain = 0
KFR1 280817Z 22012KT 22/18 A2967 RMK A01 T02160180  RH  080%=      5-min Rain = 0
KFR1 280818Z 22012KT 22/18 A2967 RMK A01 T02150179  RH  080%=      5-min Rain = 0
KFR1 280819Z 22011KT 22/18 A2967 RMK A01 T02150179  RH  080%=      5-min Rain = 0
KFR1 280820Z 22010KT 21/18 A2967 RMK A01 T02140179  RH  080%=      5-min Rain = 0
KFR1 280821Z 22010KT 21/18 A2968 RMK A01 T02140179  RH  081%=      5-min Rain = 0
KFR1 280822Z 22011KT 21/18 A2968 RMK A01 T02130179  RH  081%=      5-min Rain = 0
KFR1 280823Z 22011KT 21/18 A2968 RMK A01 T02130179  RH  081%=      5-min Rain = 0
KFR1 280824Z 23010KT 21/18 A2968 RMK A01 T02130179  RH  081%=      5-min Rain = 0
KFR1 280825Z 22010KT 21/18 A2968 RMK A01 T02130179  RH  081%=      5-min Rain = 0
KFR1 280826Z 23011KT 21/18 A2968 RMK A01 T02130178  RH  081%=      5-min Rain = 0
KFR1 280827Z 23010KT 21/18 A2968 RMK A01 T02130178  RH  081%=      5-min Rain = 0
KFR1 280828Z 23009KT 21/18 A2968 RMK A01 T02120178  RH  081%=      5-min Rain = 0
KFR1 280829Z 23010KT 21/18 A2968 RMK A01 T02110178  RH  081%=      5-min Rain = 0
KFR1 280830Z 23009KT 21/18 A2968 RMK A01 T02110178  RH  081%=      5-min Rain = 0
KFR1 280831Z 23009KT 21/18 A2968 RMK A01 T02110178  RH  081%=      5-min Rain = 0
KFR1 280832Z 23008KT 21/18 A2968 RMK A01 T02100178  RH  082%=      5-min Rain = 0
KFR1 280833Z 23008KT 21/18 A2968 RMK A01 T02090177  RH  082%=      5-min Rain = 0
KFR1 280834Z 23008KT 21/18 A2968 RMK A01 T02080177  RH  083%=      5-min Rain = 0
KFR1 280835Z 23009KT 21/18 A2968 RMK A01 T02070177  RH  083%=      5-min Rain = 0
KFR1 280836Z 23009KT 21/18 A2968 RMK A01 T02070177  RH  083%=      5-min Rain = 0
KFR1 280837Z 23010KT 21/18 A2968 RMK A01 T02070177  RH  083%=      5-min Rain = 0
KFR1 280838Z 23008KT 21/18 A2968 RMK A01 T02070177  RH  083%=      5-min Rain = 0
KFR1 280839Z 22010KT 21/18 A2968 RMK A01 T02060177  RH  083%=      5-min Rain = 0
KFR1 280840Z 22009KT 21/18 A2968 RMK A01 T02060177  RH  083%=      5-min Rain = 0
KFR1 280841Z 22010KT 21/18 A2968 RMK A01 T02060176  RH  083%=      5-min Rain = 0
KFR1 280842Z 23009KT 21/18 A2968 RMK A01 T02050176  RH  083%=      5-min Rain = 0
KFR1 280843Z 23010KT 20/18 A2968 RMK A01 T02040176  RH  084%=      5-min Rain = 0
KFR1 280844Z 23011KT 20/18 A2968 RMK A01 T02040175  RH  084%=      5-min Rain = 0
KFR1 280845Z 23009KT 20/18 A2968 RMK A01 T02030175  RH  084%=      5-min Rain = 0
KFR1 280846Z 23009KT 20/18 A2968 RMK A01 T02040175  RH  083%=      5-min Rain = 0
KFR1 280847Z 23011KT 20/17 A2968 RMK A01 T02040174  RH  083%=      5-min Rain = 0
KFR1 280848Z 23010KT 20/17 A2968 RMK A01 T02040174  RH  083%=      5-min Rain = 0
KFR1 280849Z 23010KT 20/17 A2968 RMK A01 T02040174  RH  083%=      5-min Rain = 0
KFR1 280850Z 23010KT 20/17 A2968 RMK A01 T02030174  RH  083%=      5-min Rain = 0
KFR1 280851Z 23011KT 20/17 A2968 RMK A01 T02030173  RH  083%=      5-min Rain = 0
KFR1 280852Z 23010KT 20/17 A2968 RMK A01 T02020172  RH  083%=      5-min Rain = 0
KFR1 280853Z 23011KT 20/17 A2968 RMK A01 T02020172  RH  083%=      5-min Rain = 0
KFR1 280854Z 22012KT 20/17 A2968 RMK A01 T02020171  RH  083%=      5-min Rain = 0
KFR1 280855Z 22010KT 20/17 A2968 RMK A01 T02020171  RH  082%=      5-min Rain = 0
KFR1 280856Z 22010KT 20/17 A2968 RMK A01 T02020171  RH  082%=      5-min Rain = 0
KFR1 280857Z 22010KT 20/17 A2968 RMK A01 T02020171  RH  082%=      5-min Rain = 0
KFR1 280858Z 22010KT 20/17 A2968 RMK A01 T02010171  RH  083%=      5-min Rain = 0
KFR1 280859Z 22009KT 20/17 A2968 RMK A01 T02010170  RH  083%=      5-min Rain = 0
KFR1 280900Z 22010KT 20/17 A2968 RMK A01 T02000170  RH  083%=      5-min Rain = 0
KFR1 280901Z 23010KT 20/17 A2968 RMK A01 T02000169  RH  083%=      5-min Rain = 0
KFR1 280902Z 22010KT 20/17 A2968 RMK A01 T01990169  RH  083%=      5-min Rain = 0
KFR1 280903Z 23010KT 20/17 A2968 RMK A01 T01990169  RH  083%=      5-min Rain = 0
KFR1 280904Z 23009KT 20/17 A2968 RMK A01 T01980168  RH  083%=      5-min Rain = 0
KFR1 280905Z 23010KT 20/17 A2968 RMK A01 T01980168  RH  083%=      5-min Rain = 0
KFR1 280906Z 23009KT 20/17 A2968 RMK A01 T01980167  RH  082%=      5-min Rain = 0
KFR1 280907Z 23010KT 20/17 A2968 RMK A01 T01980167  RH  082%=      5-min Rain = 0
KFR1 280908Z 23010KT 20/17 A2968 RMK A01 T01980167  RH  082%=      5-min Rain = 0
KFR1 280909Z 23010KT 20/17 A2968 RMK A01 T01980167  RH  082%=      5-min Rain = 0
KFR1 280910Z 23008KT 20/17 A2968 RMK A01 T01980166  RH  082%=      5-min Rain = 0
KFR1 280911Z 23008KT 20/17 A2968 RMK A01 T01980165  RH  082%=      5-min Rain = 0
KFR1 280912Z 22008KT 20/17 A2968 RMK A01 T01980165  RH  082%=      5-min Rain = 0
KFR1 280913Z 23008KT 20/17 A2968 RMK A01 T01970165  RH  082%=      5-min Rain = 0
KFR1 280914Z 23008KT 20/17 A2968 RMK A01 T01960165  RH  082%=      5-min Rain = 0
KFR1 280915Z 22009KT 20/16 A2968 RMK A01 T01960164  RH  082%=      5-min Rain = 0
KFR1 280916Z 22007KT 20/16 A2968 RMK A01 T01950164  RH  082%=      5-min Rain = 0
KFR1 280917Z 22009KT 19/16 A2968 RMK A01 T01940164  RH  083%=      5-min Rain = 0
KFR1 280918Z 21009KT 19/16 A2968 RMK A01 T01940163  RH  082%=      5-min Rain = 0
KFR1 280919Z 22010KT 19/16 A2968 RMK A01 T01940162  RH  082%=      5-min Rain = 0
KFR1 280920Z 21010KT 19/16 A2968 RMK A01 T01940162  RH  081%=      5-min Rain = 0
KFR1 280921Z 21010KT 20/16 A2968 RMK A01 T01950162  RH  082%=      5-min Rain = 0
KFR1 280922Z 21010KT 20/16 A2968 RMK A01 T01950163  RH  082%=      5-min Rain = 0
KFR1 280923Z 21011KT 19/16 A2968 RMK A01 T01940160  RH  081%=      5-min Rain = 0
KFR1 280924Z 21010KT 19/16 A2968 RMK A01 T01940160  RH  080%=      5-min Rain = 0
KFR1 280925Z 21011KT 19/16 A2967 RMK A01 T01940159  RH  080%=      5-min Rain = 0
KFR1 280926Z 21010KT 19/16 A2967 RMK A01 T01940159  RH  080%=      5-min Rain = 0
KFR1 280927Z 21011KT 19/16 A2967 RMK A01 T01930159  RH  081%=      5-min Rain = 0
KFR1 280928Z 21011KT 19/16 A2967 RMK A01 T01930158  RH  080%=      5-min Rain = 0
KFR1 280929Z 21011KT 19/16 A2967 RMK A01 T01930155  RH  079%=      5-min Rain = 0
KFR1 280930Z 21011KT 19/15 A2967 RMK A01 T01940153  RH  077%=      5-min Rain = 0
KFR1 280931Z 21012KT 20/15 A2967 RMK A01 T01950153  RH  077%=      5-min Rain = 0
KFR1 280932Z 21012KT 20/16 A2967 RMK A01 T01950155  RH  077%=      5-min Rain = 0
KFR1 280933Z 21011KT 20/16 A2967 RMK A01 T01950155  RH  077%=      5-min Rain = 0
KFR1 280934Z 21012KT 20/15 A2967 RMK A01 T01950153  RH  077%=      5-min Rain = 0
KFR1 280935Z 21012KT 19/15 A2967 RMK A01 T01940149  RH  075%=      5-min Rain = 0
KFR1 280936Z 22013KT 19/15 A2967 RMK A01 T01940146  RH  074%=      5-min Rain = 0
KFR1 280937Z 22013KT 20/14 A2967 RMK A01 T01950144  RH  072%=      5-min Rain = 0
KFR1 280938Z 22013KT 20/14 A2967 RMK A01 T01950142  RH  071%=      5-min Rain = 0
KFR1 280939Z 21013KT 20/14 A2967 RMK A01 T01950140  RH  070%=      5-min Rain = 0
KFR1 280940Z 22013KT 19/14 A2967 RMK A01 T01940139  RH  070%=      5-min Rain = 0
KFR1 280941Z 22013KT 19/14 A2967 RMK A01 T01940139  RH  070%=      5-min Rain = 0
KFR1 280942Z 22014KT 19/14 A2967 RMK A01 T01940139  RH  070%=      5-min Rain = 0
KFR1 280943Z 22013KT 19/14 A2967 RMK A01 T01940137  RH  070%=      5-min Rain = 0
KFR1 280944Z 21012KT 19/14 A2967 RMK A01 T01940137  RH  070%=      5-min Rain = 0
KFR1 280945Z 22013KT 19/14 A2967 RMK A01 T01930137  RH  070%=      5-min Rain = 0
KFR1 280946Z 21014KT 19/14 A2967 RMK A01 T01920135  RH  069%=      5-min Rain = 0
KFR1 280947Z 22012KT 19/13 A2967 RMK A01 T01920133  RH  068%=      5-min Rain = 0
KFR1 280948Z 22013KT 19/13 A2967 RMK A01 T01930132  RH  068%=      5-min Rain = 0
KFR1 280949Z 22013KT 19/13 A2967 RMK A01 T01930131  RH  068%=      5-min Rain = 0
KFR1 280950Z 22013KT 19/13 A2967 RMK A01 T01930131  RH  067%=      5-min Rain = 0
KFR1 280951Z 22013KT 19/13 A2968 RMK A01 T01930131  RH  067%=      5-min Rain = 0
KFR1 280952Z 22014KT 19/13 A2968 RMK A01 T01930130  RH  067%=      5-min Rain = 0
KFR1 280953Z 22014KT 19/13 A2968 RMK A01 T01930128  RH  066%=      5-min Rain = 0
KFR1 280954Z 22014KT 19/13 A2968 RMK A01 T01920125  RH  065%=      5-min Rain = 0
KFR1 280955Z 23013KT 19/12 A2968 RMK A01 T01920123  RH  064%=      5-min Rain = 0
KFR1 280956Z 23014KT 19/12 A2968 RMK A01 T01910118  RH  062%=      5-min Rain = 0
KFR1 280957Z 22013KT 19/12 A2968 RMK A01 T01920119  RH  063%=      5-min Rain = 0
KFR1 280958Z 23013KT 19/12 A2968 RMK A01 T01920116  RH  061%=      5-min Rain = 0
KFR1 280959Z 23011KT 19/12 A2968 RMK A01 T01920118  RH  062%=      5-min Rain = 0
KFR1 281000Z 23010KT 19/12 A2968 RMK A01 T01910117  RH  062%=      5-min Rain = 0
KFR1 281001Z 23011KT 19/12 A2968 RMK A01 T01910117  RH  062%=      5-min Rain = 0
KFR1 281002Z 23011KT 19/12 A2968 RMK A01 T01910115  RH  062%=      5-min Rain = 0
KFR1 281003Z 23010KT 19/11 A2968 RMK A01 T01900113  RH  061%=      5-min Rain = 0
KFR1 281004Z 23012KT 19/11 A2968 RMK A01 T01900109  RH  059%=      5-min Rain = 0
KFR1 281005Z 23011KT 19/10 A2968 RMK A01 T01910103  RH  057%=      5-min Rain = 0
KFR1 281006Z 23010KT 19/11 A2968 RMK A01 T01920108  RH  058%=      5-min Rain = 0
KFR1 281007Z 23010KT 19/10 A2968 RMK A01 T01910104  RH  057%=      5-min Rain = 0
KFR1 281008Z 23008KT 19/10 A2968 RMK A01 T01910103  RH  057%=      5-min Rain = 0
KFR1 281009Z 23009KT 19/10 A2968 RMK A01 T01920102  RH  056%=      5-min Rain = 0
KFR1 281010Z 24009KT 19/10 A2968 RMK A01 T01910102  RH  056%=      5-min Rain = 0
KFR1 281011Z 24009KT 19/10 A2968 RMK A01 T01910101  RH  056%=      5-min Rain = 0
KFR1 281012Z 24010KT 19/11 A2968 RMK A01 T01910105  RH  057%=      5-min Rain = 0
KFR1 281013Z 24009KT 19/11 A2968 RMK A01 T01900109  RH  059%=      5-min Rain = 0
KFR1 281014Z 24010KT 19/11 A2968 RMK A01 T01890106  RH  059%=      5-min Rain = 0
KFR1 281015Z 24009KT 19/10 A2968 RMK A01 T01880102  RH  057%=      5-min Rain = 0
KFR1 281016Z 24010KT 19/10 A2968 RMK A01 T01890098  RH  056%=      5-min Rain = 0
KFR1 281017Z 24008KT 19/10 A2968 RMK A01 T01880095  RH  054%=      5-min Rain = 0
KFR1 281018Z 24009KT 19/10 A2968 RMK A01 T01880096  RH  055%=      5-min Rain = 0
KFR1 281019Z 24009KT 19/10 A2968 RMK A01 T01890096  RH  055%=      5-min Rain = 0
KFR1 281020Z 23009KT 19/10 A2968 RMK A01 T01880099  RH  056%=      5-min Rain = 0
KFR1 281021Z 24008KT 19/10 A2968 RMK A01 T01870096  RH  056%=      5-min Rain = 0
KFR1 281022Z 24008KT 19/10 A2968 RMK A01 T01860097  RH  056%=      5-min Rain = 0
KFR1 281023Z 24009KT 19/09 A2968 RMK A01 T01860091  RH  054%=      5-min Rain = 0
KFR1 281024Z 24009KT 19/09 A2968 RMK A01 T01860092  RH  054%=      5-min Rain = 0
KFR1 281025Z 24011KT 19/09 A2968 RMK A01 T01860087  RH  053%=      5-min Rain = 0
KFR1 281026Z 23008KT 19/09 A2968 RMK A01 T01870089  RH  053%=      5-min Rain = 0
KFR1 281027Z 24008KT 19/09 A2968 RMK A01 T01870093  RH  055%=      5-min Rain = 0
KFR1 281028Z 24008KT 19/09 A2968 RMK A01 T01850089  RH  053%=      5-min Rain = 0
KFR1 281029Z 24010KT 19/09 A2968 RMK A01 T01850092  RH  054%=      5-min Rain = 0
KFR1 281030Z 24009KT 19/09 A2968 RMK A01 T01850085  RH  052%=      5-min Rain = 0
KFR1 281031Z 23008KT 19/10 A2968 RMK A01 T01850095  RH  056%=      5-min Rain = 0
KFR1 281032Z 23008KT 18/09 A2968 RMK A01 T01840094  RH  056%=      5-min Rain = 0
KFR1 281033Z 24009KT 18/09 A2968 RMK A01 T01840088  RH  053%=      5-min Rain = 0
KFR1 281034Z 23009KT 18/09 A2968 RMK A01 T01830092  RH  055%=      5-min Rain = 0
KFR1 281035Z 23010KT 18/09 A2968 RMK A01 T01820091  RH  055%=      5-min Rain = 0
KFR1 281036Z 24011KT 18/08 A2968 RMK A01 T01820081  RH  052%=      5-min Rain = 0
KFR1 281037Z 23009KT 18/08 A2968 RMK A01 T01840082  RH  052%=      5-min Rain = 0
KFR1 281038Z 24009KT 18/08 A2968 RMK A01 T01840082  RH  051%=      5-min Rain = 0
KFR1 281039Z 23009KT 18/08 A2968 RMK A01 T01830084  RH  052%=      5-min Rain = 0
KFR1 281040Z 23010KT 18/09 A2968 RMK A01 T01820087  RH  054%=      5-min Rain = 0
KFR1 281041Z 23010KT 18/08 A2968 RMK A01 T01810082  RH  052%=      5-min Rain = 0
KFR1 281042Z 23012KT 18/08 A2968 RMK A01 T01810079  RH  051%=      5-min Rain = 0
KFR1 281043Z 23011KT 18/08 A2968 RMK A01 T01810077  RH  051%=      5-min Rain = 0
KFR1 281044Z 23010KT 18/08 A2968 RMK A01 T01820076  RH  050%=      5-min Rain = 0
KFR1 281045Z 23010KT 18/07 A2968 RMK A01 T01820073  RH  049%=      5-min Rain = 0
KFR1 281046Z 23010KT 18/08 A2968 RMK A01 T01810076  RH  050%=      5-min Rain = 0
KFR1 281047Z 23009KT 18/08 A2968 RMK A01 T01810077  RH  050%=      5-min Rain = 0
KFR1 281048Z 23009G14KT 18/09 A2968 RMK A01 T01800085  RH  054%=      5-min Rain = 0
KFR1 281049Z 23011KT 18/08 A2968 RMK A01 T01780083  RH  054%=      5-min Rain = 0
KFR1 281050Z 22010KT 18/08 A2968 RMK A01 T01780079  RH  053%=      5-min Rain = 0
KFR1 281051Z 23010KT 18/08 A2968 RMK A01 T01780084  RH  054%=      5-min Rain = 0
KFR1 281052Z 23010KT 18/08 A2968 RMK A01 T01770082  RH  053%=      5-min Rain = 0
KFR1 281053Z 22011KT 18/09 A2968 RMK A01 T01770086  RH  055%=      5-min Rain = 0
KFR1 281054Z 22009KT 18/09 A2968 RMK A01 T01750091  RH  058%=      5-min Rain = 0
KFR1 281055Z 22009KT 17/10 A2968 RMK A01 T01730095  RH  060%=      5-min Rain = 0
KFR1 281056Z 22010KT 17/10 A2968 RMK A01 T01710095  RH  061%=      5-min Rain = 0
KFR1 281057Z 22009KT 17/09 A2968 RMK A01 T01700094  RH  061%=      5-min Rain = 0
KFR1 281058Z 22011KT 17/09 A2968 RMK A01 T01690094  RH  061%=      5-min Rain = 0
KFR1 281059Z 22010KT 17/09 A2968 RMK A01 T01690092  RH  060%=      5-min Rain = 0
KFR1 281100Z 22011KT 17/09 A2968 RMK A01 T01680092  RH  061%=      5-min Rain = 0
KFR1 281101Z 22010KT 17/09 A2968 RMK A01 T01680090  RH  060%=      5-min Rain = 0
KFR1 281102Z 23009KT 17/09 A2968 RMK A01 T01680088  RH  059%=      5-min Rain = 0
KFR1 281103Z 22012KT 17/09 A2968 RMK A01 T01680087  RH  059%=      5-min Rain = 0
KFR1 281104Z 22012KT 17/08 A2968 RMK A01 T01680084  RH  057%=      5-min Rain = 0
KFR1 281105Z 22010KT 17/08 A2968 RMK A01 T01690079  RH  055%=      5-min Rain = 0
KFR1 281106Z 22010KT 17/08 A2968 RMK A01 T01700077  RH  054%=      5-min Rain = 0
KFR1 281107Z 23011KT 17/07 A2968 RMK A01 T01700074  RH  053%=      5-min Rain = 0
KFR1 281108Z 22012KT 17/07 A2968 RMK A01 T01710070  RH  051%=      5-min Rain = 0
KFR1 281109Z 22010KT 17/07 A2968 RMK A01 T01720070  RH  051%=      5-min Rain = 0
KFR1 281110Z 23011KT 17/07 A2968 RMK A01 T01720070  RH  051%=      5-min Rain = 0
KFR1 281111Z 23011KT 17/07 A2968 RMK A01 T01720066  RH  050%=      5-min Rain = 0
KFR1 281112Z 23009KT 17/07 A2968 RMK A01 T01720070  RH  051%=      5-min Rain = 0
KFR1 281113Z 23010KT 17/07 A2968 RMK A01 T01710066  RH  050%=      5-min Rain = 0
KFR1 281114Z 22009KT 17/07 A2968 RMK A01 T01700067  RH  050%=      5-min Rain = 0
KFR1 281115Z 23009KT 17/07 A2968 RMK A01 T01700066  RH  050%=      5-min Rain = 0
KFR1 281116Z 23010KT 17/06 A2968 RMK A01 T01700064  RH  050%=      5-min Rain = 0
KFR1 281117Z 23010KT 17/06 A2968 RMK A01 T01700063  RH  049%=      5-min Rain = 0
KFR1 281118Z 23009KT 17/06 A2968 RMK A01 T01700062  RH  049%=      5-min Rain = 0
KFR1 281119Z 23008KT 17/06 A2968 RMK A01 T01710063  RH  049%=      5-min Rain = 0
KFR1 281120Z 23008KT 17/07 A2969 RMK A01 T01700065  RH  050%=      5-min Rain = 0
KFR1 281121Z 23010KT 17/06 A2969 RMK A01 T01690062  RH  049%=      5-min Rain = 0
KFR1 281122Z 23009KT 17/06 A2969 RMK A01 T01690060  RH  049%=      5-min Rain = 0
KFR1 281123Z 23008KT 17/06 A2969 RMK A01 T01690060  RH  048%=      5-min Rain = 0
KFR1 281124Z 22008KT 17/06 A2969 RMK A01 T01690060  RH  049%=      5-min Rain = 0
KFR1 281125Z 23009KT 17/06 A2969 RMK A01 T01690061  RH  049%=      5-min Rain = 0
KFR1 281126Z 23010KT 17/06 A2969 RMK A01 T01680059  RH  048%=      5-min Rain = 0
KFR1 281127Z 23008KT 17/06 A2969 RMK A01 T01680059  RH  049%=      5-min Rain = 0
KFR1 281128Z 23010KT 17/06 A2969 RMK A01 T01680059  RH  049%=      5-min Rain = 0
KFR1 281129Z 23009KT 17/06 A2969 RMK A01 T01680056  RH  048%=      5-min Rain = 0
KFR1 281130Z 23009KT 17/06 A2969 RMK A01 T01680056  RH  048%=      5-min Rain = 0
KFR1 281131Z 22009KT 17/06 A2969 RMK A01 T01670056  RH  048%=      5-min Rain = 0
KFR1 281132Z 22009KT 17/06 A2969 RMK A01 T01670056  RH  048%=      5-min Rain = 0
KFR1 281133Z 22009KT 17/06 A2969 RMK A01 T01670058  RH  049%=      5-min Rain = 0
KFR1 281134Z 23009KT 17/05 A2969 RMK A01 T01660054  RH  048%=      5-min Rain = 0
KFR1 281135Z 23008KT 17/05 A2969 RMK A01 T01670053  RH  047%=      5-min Rain = 0
KFR1 281136Z 22008KT 17/05 A2969 RMK A01 T01660054  RH  047%=      5-min Rain = 0
KFR1 281137Z 23010KT 17/05 A2969 RMK A01 T01660052  RH  047%=      5-min Rain = 0
KFR1 281138Z 23009KT 17/05 A2969 RMK A01 T01670051  RH  046%=      5-min Rain = 0
KFR1 281139Z 23008KT 17/05 A2969 RMK A01 T01670053  RH  047%=      5-min Rain = 0
KFR1 281140Z 22006KT 17/05 A2969 RMK A01 T01670052  RH  047%=      5-min Rain = 0
KFR1 281141Z 23006KT 17/05 A2969 RMK A01 T01670053  RH  047%=      5-min Rain = 0
KFR1 281142Z 23008KT 17/05 A2969 RMK A01 T01660051  RH  046%=      5-min Rain = 0
KFR1 281143Z 22009KT 17/05 A2969 RMK A01 T01660049  RH  046%=      5-min Rain = 0
KFR1 281144Z 23009KT 17/05 A2969 RMK A01 T01660052  RH  047%=      5-min Rain = 0
KFR1 281145Z 22009KT 17/05 A2969 RMK A01 T01660051  RH  047%=      5-min Rain = 0
KFR1 281146Z 22009KT 17/05 A2969 RMK A01 T01660046  RH  045%=      5-min Rain = 0
KFR1 281147Z 22008KT 17/05 A2969 RMK A01 T01670045  RH  044%=      5-min Rain = 0
KFR1 281148Z 22007KT 17/05 A2969 RMK A01 T01670048  RH  045%=      5-min Rain = 0
KFR1 281149Z 23008KT 17/05 A2969 RMK A01 T01670051  RH  046%=      5-min Rain = 0
KFR1 281150Z 23010KT 17/05 A2969 RMK A01 T01650050  RH  047%=      5-min Rain = 0
KFR1 281151Z 23009KT 17/05 A2969 RMK A01 T01650048  RH  046%=      5-min Rain = 0
KFR1 281152Z 23009KT 17/05 A2969 RMK A01 T01660045  RH  045%=      5-min Rain = 0
KFR1 281153Z 22008KT 17/05 A2969 RMK A01 T01670049  RH  046%=      5-min Rain = 0
KFR1 281154Z 23012KT 17/05 A2969 RMK A01 T01650049  RH  046%=      5-min Rain = 0
KFR1 281155Z 23012KT 17/05 A2969 RMK A01 T01650048  RH  046%=      5-min Rain = 0
KFR1 281156Z 23010KT 16/05 A2969 RMK A01 T01640048  RH  046%=      5-min Rain = 0
KFR1 281157Z 23010KT 16/05 A2969 RMK A01 T01640049  RH  046%=      5-min Rain = 0
KFR1 281158Z 23011KT 16/05 A2969 RMK A01 T01640047  RH  046%=      5-min Rain = 0
KFR1 281159Z 22010KT 16/05 A2969 RMK A01 T01640048  RH  046%=      5-min Rain = 0
KFR1 281200Z 22010KT 16/05 A2969 RMK A01 T01630048  RH  046%=      5-min Rain = 0
KFR1 281201Z 22009KT 16/05 A2969 RMK A01 T01620051  RH  048%=      5-min Rain = 0
KFR1 281202Z 22010KT 16/05 A2969 RMK A01 T01620049  RH  047%=      5-min Rain = 0
KFR1 281203Z 22011KT 16/05 A2969 RMK A01 T01610051  RH  048%=      5-min Rain = 0
KFR1 281204Z 22009G14KT 16/05 A2969 RMK A01 T01600052  RH  048%=      5-min Rain = 0
KFR1 281205Z 22011G16KT 16/05 A2969 RMK A01 T01600050  RH  048%=      5-min Rain = 0
KFR1 281206Z 22010KT 16/05 A2969 RMK A01 T01600050  RH  048%=      5-min Rain = 0
KFR1 281207Z 22008KT 16/05 A2969 RMK A01 T01600052  RH  049%=      5-min Rain = 0
KFR1 281208Z 22010KT 16/05 A2969 RMK A01 T01590053  RH  049%=      5-min Rain = 0
KFR1 281209Z 22009KT 16/05 A2969 RMK A01 T01580052  RH  049%=      5-min Rain = 0
KFR1 281210Z 22009KT 16/05 A2969 RMK A01 T01580052  RH  049%=      5-min Rain = 0
KFR1 281211Z 22009KT 16/05 A297 RMK A01 T01580051  RH  049%=      5-min Rain = 0
KFR1 281212Z 22009KT 16/05 A297 RMK A01 T01580049  RH  048%=      5-min Rain = 0
KFR1 281213Z 22008KT 16/05 A297 RMK A01 T01580050  RH  048%=      5-min Rain = 0
KFR1 281214Z 22008KT 16/05 A297 RMK A01 T01580051  RH  049%=      5-min Rain = 0
KFR1 281215Z 22008KT 16/05 A297 RMK A01 T01580048  RH  048%=      5-min Rain = 0
KFR1 281216Z 22008KT 16/05 A297 RMK A01 T01590048  RH  048%=      5-min Rain = 0
KFR1 281217Z 22009KT 16/05 A297 RMK A01 T01590049  RH  048%=      5-min Rain = 0
KFR1 281218Z 22007KT 16/05 A297 RMK A01 T01600050  RH  048%=      5-min Rain = 0
KFR1 281219Z 22007KT 16/05 A297 RMK A01 T01590052  RH  049%=      5-min Rain = 0
KFR1 281220Z 22008KT 16/05 A297 RMK A01 T01590051  RH  049%=      5-min Rain = 0
KFR1 281221Z 22007KT 16/05 A297 RMK A01 T01580050  RH  049%=      5-min Rain = 0
KFR1 281222Z 22007KT 16/05 A297 RMK A01 T01580052  RH  049%=      5-min Rain = 0
KFR1 281223Z 22008KT 16/05 A297 RMK A01 T01580049  RH  048%=      5-min Rain = 0
KFR1 281224Z 21007KT 16/05 A297 RMK A01 T01590048  RH  048%=      5-min Rain = 0
KFR1 281225Z 22007KT 16/05 A297 RMK A01 T01600051  RH  048%=      5-min Rain = 0
KFR1 281226Z 22008KT 16/05 A297 RMK A01 T01600052  RH  049%=      5-min Rain = 0
KFR1 281227Z 22008KT 16/05 A297 RMK A01 T01590051  RH  048%=      5-min Rain = 0
KFR1 281228Z 23008KT 16/05 A297 RMK A01 T01590052  RH  049%=      5-min Rain = 0
KFR1 281229Z 23009KT 16/05 A297 RMK A01 T01590053  RH  050%=      5-min Rain = 0
KFR1 281230Z 22009KT 16/05 A297 RMK A01 T01580052  RH  049%=      5-min Rain = 0
KFR1 281231Z 22008KT 16/05 A297 RMK A01 T01580050  RH  049%=      5-min Rain = 0
KFR1 281232Z 23010KT 16/05 A297 RMK A01 T01580050  RH  049%=      5-min Rain = 0
KFR1 281233Z 22010KT 16/05 A297 RMK A01 T01590050  RH  048%=      5-min Rain = 0
KFR1 281234Z 22009KT 16/05 A297 RMK A01 T01590049  RH  048%=      5-min Rain = 0
KFR1 281235Z 22009KT 16/05 A297 RMK A01 T01600050  RH  048%=      5-min Rain = 0
KFR1 281236Z 23008KT 16/05 A297 RMK A01 T01600052  RH  049%=      5-min Rain = 0
KFR1 281237Z 22009KT 16/05 A297 RMK A01 T01600049  RH  048%=      5-min Rain = 0
KFR1 281238Z 22009KT 16/05 A297 RMK A01 T01600046  RH  047%=      5-min Rain = 0
KFR1 281239Z 22009KT 16/05 A297 RMK A01 T01610050  RH  048%=      5-min Rain = 0
KFR1 281240Z 22010KT 16/05 A297 RMK A01 T01610051  RH  048%=      5-min Rain = 0
KFR1 281241Z 22009KT 16/05 A297 RMK A01 T01600051  RH  048%=      5-min Rain = 0
KFR1 281242Z 22009KT 16/05 A297 RMK A01 T01600052  RH  049%=      5-min Rain = 0
KFR1 281243Z 22009KT 16/05 A297 RMK A01 T01600054  RH  049%=      5-min Rain = 0
KFR1 281244Z 22008KT 16/05 A297 RMK A01 T01600054  RH  049%=      5-min Rain = 0
KFR1 281245Z 22008KT 16/05 A297 RMK A01 T01590054  RH  050%=      5-min Rain = 0
KFR1 281246Z 22008KT 16/06 A297 RMK A01 T01590055  RH  050%=      5-min Rain = 0
KFR1 281247Z 22008KT 16/05 A2971 RMK A01 T01590052  RH  049%=      5-min Rain = 0
KFR1 281248Z 22008KT 16/05 A2971 RMK A01 T01600054  RH  050%=      5-min Rain = 0
KFR1 281249Z 22008KT 16/06 A2971 RMK A01 T01600055  RH  050%=      5-min Rain = 0
KFR1 281250Z 22008KT 16/05 A2971 RMK A01 T01600054  RH  050%=      5-min Rain = 0
KFR1 281251Z 21008KT 16/06 A2971 RMK A01 T01600056  RH  050%=      5-min Rain = 0
KFR1 281252Z 22008KT 16/06 A2971 RMK A01 T01600056  RH  050%=      5-min Rain = 0
KFR1 281253Z 22008KT 16/06 A2971 RMK A01 T01600056  RH  050%=      5-min Rain = 0
KFR1 281254Z 22008KT 16/06 A2971 RMK A01 T01600056  RH  050%=      5-min Rain = 0
KFR1 281255Z 22008KT 16/06 A2971 RMK A01 T01600057  RH  050%=      5-min Rain = 0
KFR1 281256Z 22008KT 16/06 A2971 RMK A01 T01600058  RH  051%=      5-min Rain = 0
KFR1 281257Z 22008KT 16/06 A2971 RMK A01 T01600057  RH  051%=      5-min Rain = 0
KFR1 281258Z 23008KT 16/06 A2971 RMK A01 T01610059  RH  051%=      5-min Rain = 0
KFR1 281259Z 22008KT 16/06 A2972 RMK A01 T01610055  RH  049%=      5-min Rain = 0
KFR1 281300Z 22007KT 16/06 A2972 RMK A01 T01620056  RH  049%=      5-min Rain = 0
KFR1 281301Z 23007KT 16/06 A2972 RMK A01 T01620059  RH  050%=      5-min Rain = 0
KFR1 281302Z 23008KT 16/06 A2972 RMK A01 T01620059  RH  050%=      5-min Rain = 0
KFR1 281303Z 23007KT 16/05 A2972 RMK A01 T01630054  RH  048%=      5-min Rain = 0
KFR1 281304Z 23009KT 16/06 A2972 RMK A01 T01640056  RH  049%=      5-min Rain = 0
KFR1 281305Z 22008KT 16/05 A2972 RMK A01 T01640053  RH  048%=      5-min Rain = 0
KFR1 281306Z 23009KT 17/05 A2972 RMK A01 T01650053  RH  047%=      5-min Rain = 0
KFR1 281307Z 23009KT 17/05 A2972 RMK A01 T01660051  RH  046%=      5-min Rain = 0
KFR1 281308Z 22009KT 17/05 A2972 RMK A01 T01670051  RH  046%=      5-min Rain = 0
KFR1 281309Z 22009KT 17/05 A2972 RMK A01 T01680053  RH  047%=      5-min Rain = 0
KFR1 281310Z 22008KT 17/05 A2972 RMK A01 T01670054  RH  047%=      5-min Rain = 0
KFR1 281311Z 23008KT 17/05 A2972 RMK A01 T01670054  RH  047%=      5-min Rain = 0
KFR1 281312Z 22008KT 17/05 A2972 RMK A01 T01680054  RH  047%=      5-min Rain = 0
KFR1 281313Z 22008KT 17/06 A2972 RMK A01 T01680055  RH  047%=      5-min Rain = 0
KFR1 281314Z 22007KT 17/05 A2972 RMK A01 T01690054  RH  047%=      5-min Rain = 0
KFR1 281315Z 21009KT 17/05 A2972 RMK A01 T01690050  RH  045%=      5-min Rain = 0
KFR1 281316Z 22008KT 17/05 A2972 RMK A01 T01690051  RH  046%=      5-min Rain = 0
KFR1 281317Z 22008KT 17/05 A2972 RMK A01 T01690052  RH  046%=      5-min Rain = 0
KFR1 281318Z 22008KT 17/05 A2972 RMK A01 T01690052  RH  046%=      5-min Rain = 0
KFR1 281319Z 22007KT 17/06 A2972 RMK A01 T01700055  RH  047%=      5-min Rain = 0
KFR1 281320Z 22008KT 17/06 A2972 RMK A01 T01700055  RH  047%=      5-min Rain = 0
KFR1 281321Z 22008KT 17/06 A2972 RMK A01 T01710057  RH  047%=      5-min Rain = 0
KFR1 281322Z 22008KT 17/06 A2972 RMK A01 T01710058  RH  047%=      5-min Rain = 0
KFR1 281323Z 21008KT 17/05 A2972 RMK A01 T01710054  RH  046%=      5-min Rain = 0
KFR1 281324Z 22007KT 17/06 A2972 RMK A01 T01720058  RH  047%=      5-min Rain = 0
KFR1 281325Z 22008KT 17/06 A2972 RMK A01 T01730056  RH  046%=      5-min Rain = 0
KFR1 281326Z 22009KT 17/05 A2972 RMK A01 T01740054  RH  045%=      5-min Rain = 0
KFR1 281327Z 22008KT 17/06 A2972 RMK A01 T01740055  RH  045%=      5-min Rain = 0
KFR1 281328Z 22009KT 18/05 A2972 RMK A01 T01750054  RH  045%=      5-min Rain = 0
KFR1 281329Z 23008KT 18/05 A2972 RMK A01 T01760049  RH  043%=      5-min Rain = 0
KFR1 281330Z 23007KT 18/05 A2972 RMK A01 T01760053  RH  044%=      5-min Rain = 0
KFR1 281331Z 22007KT 18/06 A2972 RMK A01 T01770057  RH  045%=      5-min Rain = 0
KFR1 281332Z 23007KT 18/06 A2972 RMK A01 T01780061  RH  046%=      5-min Rain = 0
KFR1 281333Z 23010KT 18/06 A2972 RMK A01 T01780057  RH  045%=      5-min Rain = 0
KFR1 281334Z 23007KT 18/06 A2972 RMK A01 T01780055  RH  044%=      5-min Rain = 0
KFR1 281335Z 22008KT 18/06 A2972 RMK A01 T01780058  RH  045%=      5-min Rain = 0
KFR1 281336Z 22008KT 18/06 A2972 RMK A01 T01790057  RH  045%=      5-min Rain = 0
KFR1 281337Z 23010KT 18/06 A2972 RMK A01 T01790055  RH  044%=      5-min Rain = 0
KFR1 281338Z 22009KT 18/05 A2972 RMK A01 T01800054  RH  043%=      5-min Rain = 0
KFR1 281339Z 22009KT 18/05 A2972 RMK A01 T01810054  RH  043%=      5-min Rain = 0
KFR1 281340Z 23010KT 18/05 A2972 RMK A01 T01820051  RH  042%=      5-min Rain = 0
KFR1 281341Z 22010KT 18/05 A2972 RMK A01 T01820053  RH  043%=      5-min Rain = 0
KFR1 281342Z 22011KT 18/05 A2972 RMK A01 T01830051  RH  042%=      5-min Rain = 0
KFR1 281343Z 23011G16KT 18/05 A2972 RMK A01 T01830052  RH  042%=      5-min Rain = 0
KFR1 281344Z 23009KT 18/05 A2972 RMK A01 T01840053  RH  042%=      5-min Rain = 0
KFR1 281345Z 23012KT 19/05 A2972 RMK A01 T01850048  RH  040%=      5-min Rain = 0
KFR1 281346Z 24010KT 19/04 A2972 RMK A01 T01880042  RH  038%=      5-min Rain = 0
KFR1 281347Z 24010KT 19/04 A2972 RMK A01 T01900043  RH  038%=      5-min Rain = 0
KFR1 281348Z 23011KT 19/04 A2972 RMK A01 T01920044  RH  038%=      5-min Rain = 0
KFR1 281349Z 23010KT 19/05 A2972 RMK A01 T01920047  RH  038%=      5-min Rain = 0
KFR1 281350Z 23010KT 19/05 A2972 RMK A01 T01930048  RH  038%=      5-min Rain = 0
KFR1 281351Z 23011KT 19/05 A2972 RMK A01 T01930047  RH  038%=      5-min Rain = 0
KFR1 281352Z 24009KT 19/05 A2972 RMK A01 T01920050  RH  039%=      5-min Rain = 0
KFR1 281353Z 23009KT 19/05 A2972 RMK A01 T01930050  RH  039%=      5-min Rain = 0
KFR1 281354Z 24009KT 19/05 A2971 RMK A01 T01930046  RH  038%=      5-min Rain = 0
KFR1 281355Z 24009KT 19/05 A2972 RMK A01 T01940051  RH  039%=      5-min Rain = 0
KFR1 281356Z 24011KT 20/04 A2972 RMK A01 T01950042  RH  036%=      5-min Rain = 0
KFR1 281357Z 24009KT 20/04 A2972 RMK A01 T01960043  RH  036%=      5-min Rain = 0
KFR1 281358Z 24011KT 20/05 A2972 RMK A01 T01970047  RH  037%=      5-min Rain = 0
KFR1 281359Z 23009KT 20/04 A2972 RMK A01 T01980041  RH  036%=      5-min Rain = 0
KFR1 281400Z 23011KT 20/04 A2972 RMK A01 T01980044  RH  036%=      5-min Rain = 0
KFR1 281401Z 23009KT 20/05 A2972 RMK A01 T01980047  RH  037%=      5-min Rain = 0
KFR1 281402Z 24010KT 20/05 A2972 RMK A01 T01990046  RH  037%=      5-min Rain = 0
KFR1 281403Z 24012KT 20/04 A2972 RMK A01 T01990036  RH  034%=      5-min Rain = 0
KFR1 281404Z 24009KT 20/04 A2972 RMK A01 T02000041  RH  035%=      5-min Rain = 0
KFR1 281405Z 24012KT 20/04 A2972 RMK A01 T02000041  RH  035%=      5-min Rain = 0
KFR1 281406Z 24010KT 20/04 A2971 RMK A01 T02000040  RH  035%=      5-min Rain = 0
KFR1 281407Z 23012KT 20/04 A2971 RMK A01 T02000041  RH  035%=      5-min Rain = 0
KFR1 281408Z 23010KT 20/05 A2971 RMK A01 T02000046  RH  036%=      5-min Rain = 0
KFR1 281409Z 23012KT 20/04 A2971 RMK A01 T02010044  RH  036%=      5-min Rain = 0
KFR1 281410Z 23011KT 20/04 A2971 RMK A01 T02000042  RH  035%=      5-min Rain = 0
KFR1 281411Z 23013KT 20/04 A2971 RMK A01 T02000041  RH  035%=      5-min Rain = 0
KFR1 281412Z 23012KT 20/04 A2971 RMK A01 T02000042  RH  035%=      5-min Rain = 0
KFR1 281413Z 23012KT 20/04 A2971 RMK A01 T02000040  RH  035%=      5-min Rain = 0
KFR1 281414Z 23012KT 20/04 A2971 RMK A01 T02000040  RH  035%=      5-min Rain = 0
KFR1 281415Z 23012KT 20/03 A2971 RMK A01 T02010034  RH  033%=      5-min Rain = 0
KFR1 281416Z 23011KT 20/04 A2971 RMK A01 T02010044  RH  036%=      5-min Rain = 0
KFR1 281417Z 23012KT 20/04 A2971 RMK A01 T02010038  RH  034%=      5-min Rain = 0
KFR1 281418Z 23010KT 20/05 A2971 RMK A01 T02010045  RH  036%=      5-min Rain = 0
KFR1 281419Z 22010KT 20/05 A2971 RMK A01 T02010046  RH  036%=      5-min Rain = 0
KFR1 281420Z 22010KT 20/05 A2971 RMK A01 T02010049  RH  037%=      5-min Rain = 0
KFR1 281421Z 22010KT 20/05 A2971 RMK A01 T02010048  RH  037%=      5-min Rain = 0
KFR1 281422Z 22010KT 20/04 A2971 RMK A01 T02010044  RH  036%=      5-min Rain = 0
KFR1 281423Z 23010KT 20/05 A2971 RMK A01 T02010050  RH  037%=      5-min Rain = 0
KFR1 281424Z 23011KT 20/04 A2971 RMK A01 T02020041  RH  035%=      5-min Rain = 0
KFR1 281425Z 22008KT 20/05 A2971 RMK A01 T02020046  RH  036%=      5-min Rain = 0
KFR1 281426Z 23008KT 20/05 A2971 RMK A01 T02030052  RH  037%=      5-min Rain = 0
KFR1 281427Z 23010KT 20/05 A2971 RMK A01 T02030050  RH  036%=      5-min Rain = 0
KFR1 281428Z 22009KT 20/05 A2971 RMK A01 T02030051  RH  037%=      5-min Rain = 0
KFR1 281429Z 22010KT 20/05 A2971 RMK A01 T02040049  RH  036%=      5-min Rain = 0
KFR1 281430Z 22010KT 20/05 A2971 RMK A01 T02030048  RH  036%=      5-min Rain = 0
KFR1 281431Z 23010KT 20/05 A2971 RMK A01 T02040051  RH  037%=      5-min Rain = 0
KFR1 281432Z 23012KT 20/05 A2971 RMK A01 T02040049  RH  036%=      5-min Rain = 0
KFR1 281433Z 22009KT 21/05 A2971 RMK A01 T02060046  RH  035%=      5-min Rain = 0
KFR1 281434Z 24009G14KT 21/05 A2972 RMK A01 T02060053  RH  037%=      5-min Rain = 0
KFR1 281435Z 24011KT 21/05 A2972 RMK A01 T02070045  RH  035%=      5-min Rain = 0
KFR1 281436Z 24011KT 21/04 A2972 RMK A01 T02080042  RH  034%=      5-min Rain = 0
KFR1 281437Z 23011KT 21/04 A2972 RMK A01 T02090042  RH  033%=      5-min Rain = 0
KFR1 281438Z 23010KT 21/04 A2972 RMK A01 T02090040  RH  033%=      5-min Rain = 0
KFR1 281439Z 23011KT 21/04 A2972 RMK A01 T02100042  RH  033%=      5-min Rain = 0
KFR1 281440Z 23011KT 21/05 A2972 RMK A01 T02110046  RH  034%=      5-min Rain = 0
KFR1 281441Z 23010KT 21/05 A2972 RMK A01 T02120045  RH  033%=      5-min Rain = 0
KFR1 281442Z 23010KT 21/04 A2972 RMK A01 T02120041  RH  032%=      5-min Rain = 0
KFR1 281443Z 24009KT 21/04 A2972 RMK A01 T02120036  RH  031%=      5-min Rain = 0
KFR1 281444Z 23010KT 21/04 A2972 RMK A01 T02120041  RH  032%=      5-min Rain = 0
KFR1 281445Z 24011KT 21/04 A2972 RMK A01 T02120037  RH  032%=      5-min Rain = 0
KFR1 281446Z 24009KT 21/04 A2972 RMK A01 T02130042  RH  033%=      5-min Rain = 0
KFR1 281447Z 23009KT 21/04 A2972 RMK A01 T02130041  RH  032%=      5-min Rain = 0
KFR1 281448Z 23011KT 21/04 A2972 RMK A01 T02140038  RH  031%=      5-min Rain = 0
KFR1 281449Z 23010KT 21/04 A2972 RMK A01 T02140037  RH  031%=      5-min Rain = 0
KFR1 281450Z 23011KT 21/04 A2972 RMK A01 T02140039  RH  032%=      5-min Rain = 0
KFR1 281451Z 23011KT 22/04 A2972 RMK A01 T02150042  RH  032%=      5-min Rain = 0
KFR1 281452Z 23012KT 22/04 A2972 RMK A01 T02150039  RH  031%=      5-min Rain = 0
KFR1 281453Z 23014KT 22/03 A2972 RMK A01 T02160033  RH  030%=      5-min Rain = 0
KFR1 281454Z 23014KT 22/03 A2972 RMK A01 T02160027  RH  029%=      5-min Rain = 0
KFR1 281455Z 24013KT 22/03 A2972 RMK A01 T02160027  RH  029%=      5-min Rain = 0
KFR1 281456Z 24013KT 22/03 A2972 RMK A01 T02150029  RH  029%=      5-min Rain = 0
KFR1 281457Z 24013KT 22/03 A2972 RMK A01 T02150027  RH  029%=      5-min Rain = 0
KFR1 281458Z 25013KT 22/03 A2972 RMK A01 T02150027  RH  029%=      5-min Rain = 0
KFR1 281459Z 23012KT 22/03 A2972 RMK A01 T02160033  RH  030%=      5-min Rain = 0
KFR1 281500Z 24012KT 22/03 A2972 RMK A01 T02170031  RH  029%=      5-min Rain = 0
KFR1 281501Z 25013KT 22/03 A2972 RMK A01 T02180033  RH  030%=      5-min Rain = 0
KFR1 281502Z 25013KT 22/03 A2972 RMK A01 T02180031  RH  029%=      5-min Rain = 0
KFR1 281503Z 24010KT 22/03 A2972 RMK A01 T02180034  RH  030%=      5-min Rain = 0
KFR1 281504Z 24012KT 22/04 A2972 RMK A01 T02180040  RH  031%=      5-min Rain = 0
KFR1 281505Z 24011KT 22/04 A2972 RMK A01 T02190037  RH  030%=      5-min Rain = 0
KFR1 281506Z 24008KT 22/04 A2972 RMK A01 T02190044  RH  032%=      5-min Rain = 0
KFR1 281507Z 24010KT 22/05 A2972 RMK A01 T02200051  RH  033%=      5-min Rain = 0
KFR1 281508Z 24011KT 22/04 A2972 RMK A01 T02210041  RH  031%=      5-min Rain = 0
KFR1 281509Z 25013KT 22/04 A2972 RMK A01 T02210042  RH  031%=      5-min Rain = 0
KFR1 281510Z 25014KT 22/04 A2972 RMK A01 T02210039  RH  030%=      5-min Rain = 0
KFR1 281511Z 24011KT 22/04 A2972 RMK A01 T02210039  RH  030%=      5-min Rain = 0
KFR1 281512Z 24013KT 22/04 A2972 RMK A01 T02210042  RH  031%=      5-min Rain = 0
KFR1 281513Z 25015KT 22/04 A2972 RMK A01 T02210039  RH  030%=      5-min Rain = 0
KFR1 281514Z 25014KT 22/04 A2972 RMK A01 T02210036  RH  030%=      5-min Rain = 0
KFR1 281515Z 24014KT 22/04 A2972 RMK A01 T02210037  RH  030%=      5-min Rain = 0
KFR1 281516Z 24015KT 22/04 A2972 RMK A01 T02210037  RH  030%=      5-min Rain = 0
KFR1 281517Z 25012KT 22/04 A2972 RMK A01 T02210038  RH  030%=      5-min Rain = 0
KFR1 281518Z 25010KT 22/05 A2972 RMK A01 T02220046  RH  032%=      5-min Rain = 0
KFR1 281519Z 24013KT 22/04 A2972 RMK A01 T02220039  RH  030%=      5-min Rain = 0
KFR1 281520Z 24011KT 22/04 A2972 RMK A01 T02220043  RH  031%=      5-min Rain = 0
KFR1 281521Z 25012KT 22/05 A2972 RMK A01 T02230048  RH  032%=      5-min Rain = 0
KFR1 281522Z 26011KT 22/04 A2972 RMK A01 T02240041  RH  030%=      5-min Rain = 0
KFR1 281523Z 25011G17KT 22/04 A2972 RMK A01 T02240041  RH  030%=      5-min Rain = 0
KFR1 281524Z 24011KT 23/05 A2972 RMK A01 T02250047  RH  031%=      5-min Rain = 0
KFR1 281525Z 25011G17KT 23/05 A2972 RMK A01 T02250046  RH  031%=      5-min Rain = 0
KFR1 281526Z 26013KT 23/04 A2972 RMK A01 T02260040  RH  030%=      5-min Rain = 0
KFR1 281527Z 26013G19KT 23/05 A2972 RMK A01 T02260046  RH  031%=      5-min Rain = 0
KFR1 281528Z 26012G17KT 23/04 A2972 RMK A01 T02250036  RH  029%=      5-min Rain = 0
KFR1 281529Z 26013KT 22/04 A2972 RMK A01 T02240035  RH  029%=      5-min Rain = 0
KFR1 281530Z 26012G17KT 23/04 A2972 RMK A01 T02250040  RH  030%=      5-min Rain = 0
KFR1 281531Z 25013G18KT 22/04 A2972 RMK A01 T02240043  RH  031%=      5-min Rain = 0
KFR1 281532Z 25014KT 22/04 A2973 RMK A01 T02240038  RH  029%=      5-min Rain = 0
KFR1 281533Z 26015KT 23/03 A2973 RMK A01 T02250032  RH  028%=      5-min Rain = 0
KFR1 281534Z 25011G16KT 23/03 A2973 RMK A01 T02250032  RH  028%=      5-min Rain = 0
KFR1 281535Z 25011G16KT 23/04 A2973 RMK A01 T02250041  RH  030%=      5-min Rain = 0
KFR1 281536Z 26013KT 23/04 A2973 RMK A01 T02260036  RH  029%=      5-min Rain = 0
KFR1 281537Z 25014KT 23/04 A2973 RMK A01 T02260038  RH  029%=      5-min Rain = 0
KFR1 281538Z 26015KT 23/03 A2973 RMK A01 T02260034  RH  028%=      5-min Rain = 0
KFR1 281539Z 26012KT 23/04 A2973 RMK A01 T02260036  RH  029%=      5-min Rain = 0
KFR1 281540Z 26011KT 23/04 A2973 RMK A01 T02250041  RH  030%=      5-min Rain = 0
KFR1 281541Z 25012KT 23/04 A2973 RMK A01 T02250040  RH  030%=      5-min Rain = 0
KFR1 281542Z 25013KT 22/03 A2973 RMK A01 T02230034  RH  029%=      5-min Rain = 0
KFR1 281543Z 26011KT 22/04 A2973 RMK A01 T02200038  RH  030%=      5-min Rain = 0
KFR1 281544Z 25012G17KT 22/04 A2973 RMK A01 T02170043  RH  032%=      5-min Rain = 0
KFR1 281545Z 25013KT 21/04 A2973 RMK A01 T02140039  RH  032%=      5-min Rain = 0
KFR1 281546Z 25014KT 21/04 A2973 RMK A01 T02140037  RH  031%=      5-min Rain = 0
KFR1 281547Z 25015KT 21/04 A2973 RMK A01 T02140036  RH  031%=      5-min Rain = 0
KFR1 281548Z 25013KT 22/04 A2973 RMK A01 T02160040  RH  032%=      5-min Rain = 0
KFR1 281549Z 24014KT 22/04 A2973 RMK A01 T02190044  RH  032%=      5-min Rain = 0
KFR1 281550Z 25014G19KT 22/04 A2973 RMK A01 T02210040  RH  031%=      5-min Rain = 0
KFR1 281551Z 24012KT 22/04 A2973 RMK A01 T02220043  RH  031%=      5-min Rain = 0
KFR1 281552Z 25014G19KT 22/04 A2973 RMK A01 T02230041  RH  030%=      5-min Rain = 0
KFR1 281553Z 25016KT 22/04 A2973 RMK A01 T02230036  RH  029%=      5-min Rain = 0
KFR1 281554Z 24014KT 22/04 A2973 RMK A01 T02240036  RH  029%=      5-min Rain = 0
KFR1 281555Z 25014KT 22/03 A2973 RMK A01 T02230030  RH  028%=      5-min Rain = 0
KFR1 281556Z 24016KT 22/04 A2973 RMK A01 T02230037  RH  030%=      5-min Rain = 0
KFR1 281557Z 25015KT 22/05 A2973 RMK A01 T02240045  RH  031%=      5-min Rain = 0
KFR1 281558Z 24015KT 22/05 A2973 RMK A01 T02230046  RH  031%=      5-min Rain = 0
KFR1 281559Z 25013KT 22/04 A2973 RMK A01 T02240037  RH  029%=      5-min Rain = 0
KFR1 281600Z 25011KT 22/05 A2973 RMK A01 T02240045  RH  031%=      5-min Rain = 0
KFR1 281601Z 26010KT 23/05 A2973 RMK A01 T02250047  RH  031%=      5-min Rain = 0
KFR1 281602Z 25013KT 23/05 A2973 RMK A01 T02270046  RH  031%=      5-min Rain = 0
KFR1 281603Z 25014KT 23/05 A2973 RMK A01 T02270050  RH  032%=      5-min Rain = 0
KFR1 281604Z 24014KT 23/05 A2973 RMK A01 T02270048  RH  031%=      5-min Rain = 0
KFR1 281605Z 24014KT 23/04 A2973 RMK A01 T02270041  RH  030%=      5-min Rain = 0
KFR1 281606Z 24016KT 23/04 A2973 RMK A01 T02270040  RH  030%=      5-min Rain = 0
KFR1 281607Z 25014KT 23/04 A2973 RMK A01 T02260037  RH  029%=      5-min Rain = 0
KFR1 281608Z 25012KT 23/04 A2973 RMK A01 T02260037  RH  029%=      5-min Rain = 0
KFR1 281609Z 25013KT 23/04 A2973 RMK A01 T02270043  RH  030%=      5-min Rain = 0
KFR1 281610Z 26015KT 23/03 A2973 RMK A01 T02270032  RH  028%=      5-min Rain = 0
KFR1 281611Z 25010KT 23/03 A2973 RMK A01 T02260031  RH  028%=      5-min Rain = 0
KFR1 281612Z 25011KT 23/05 A2973 RMK A01 T02260050  RH  032%=      5-min Rain = 0
KFR1 281613Z 26013KT 23/05 A2973 RMK A01 T02270052  RH  032%=      5-min Rain = 0
KFR1 281614Z 25014G19KT 23/06 A2973 RMK A01 T02270055  RH  033%=      5-min Rain = 0
KFR1 281615Z 24012G19KT 23/05 A2973 RMK A01 T02270053  RH  032%=      5-min Rain = 0
KFR1 281616Z 25016KT 23/04 A2973 RMK A01 T02280044  RH  030%=      5-min Rain = 0
KFR1 281617Z 24014KT 23/04 A2973 RMK A01 T02280042  RH  030%=      5-min Rain = 0
KFR1 281618Z 25016KT 23/04 A2973 RMK A01 T02270041  RH  030%=      5-min Rain = 0
KFR1 281619Z 25012KT 23/04 A2973 RMK A01 T02260044  RH  031%=      5-min Rain = 0
KFR1 281620Z 25014KT 23/05 A2973 RMK A01 T02260048  RH  031%=      5-min Rain = 0
KFR1 281621Z 25015G22KT 23/04 A2973 RMK A01 T02270042  RH  030%=      5-min Rain = 0
KFR1 281622Z 26018KT 23/03 A2973 RMK A01 T02270034  RH  028%=      5-min Rain = 0
KFR1 281623Z 26016KT 23/03 A2973 RMK A01 T02270030  RH  028%=      5-min Rain = 0
KFR1 281624Z 26015KT 23/04 A2973 RMK A01 T02270037  RH  029%=      5-min Rain = 0
KFR1 281625Z 26011KT 23/04 A2973 RMK A01 T02270040  RH  030%=      5-min Rain = 0
KFR1 281626Z 27011KT 23/04 A2973 RMK A01 T02280041  RH  030%=      5-min Rain = 0
KFR1 281627Z 27009KT 23/05 A2973 RMK A01 T02270048  RH  031%=      5-min Rain = 0
KFR1 281628Z 27010G15KT 23/05 A2973 RMK A01 T02280053  RH  032%=      5-min Rain = 0
KFR1 281629Z 26012G17KT 23/05 A2973 RMK A01 T02280052  RH  032%=      5-min Rain = 0
KFR1 281630Z 24013KT 23/05 A2973 RMK A01 T02280051  RH  032%=      5-min Rain = 0
KFR1 281631Z 25012KT 23/05 A2973 RMK A01 T02280053  RH  032%=      5-min Rain = 0
KFR1 281632Z 24014KT 23/05 A2973 RMK A01 T02290051  RH  031%=      5-min Rain = 0
KFR1 281633Z 24013KT 23/05 A2973 RMK A01 T02290046  RH  030%=      5-min Rain = 0
KFR1 281634Z 25014KT 23/04 A2973 RMK A01 T02300042  RH  029%=      5-min Rain = 0
KFR1 281635Z 24012KT 23/04 A2973 RMK A01 T02290041  RH  029%=      5-min Rain = 0
KFR1 281636Z 25010KT 23/05 A2973 RMK A01 T02290046  RH  030%=      5-min Rain = 0
KFR1 281637Z 25010KT 23/04 A2973 RMK A01 T02300044  RH  030%=      5-min Rain = 0
KFR1 281638Z 25010G15KT 23/05 A2973 RMK A01 T02310050  RH  031%=      5-min Rain = 0
KFR1 281639Z 24013KT 23/04 A2973 RMK A01 T02320042  RH  029%=      5-min Rain = 0
KFR1 281640Z 25014G20KT 23/04 A2973 RMK A01 T02330039  RH  028%=      5-min Rain = 0
KFR1 281641Z 25013KT 23/03 A2973 RMK A01 T02330030  RH  026%=      5-min Rain = 0
KFR1 281642Z 25012KT 23/04 A2973 RMK A01 T02330035  RH  027%=      5-min Rain = 0
KFR1 281643Z 25017KT 23/02 A2973 RMK A01 T02340022  RH  025%=      5-min Rain = 0
KFR1 281644Z 25019KT 23/01 A2973 RMK A01 T02340012  RH  023%=      5-min Rain = 0
KFR1 281645Z 25017KT 23/01 A2973 RMK A01 T02330012  RH  023%=      5-min Rain = 0
KFR1 281646Z 25016KT 23/01 A2973 RMK A01 T02320012  RH  023%=      5-min Rain = 0
KFR1 281647Z 25015KT 23/01 A2973 RMK A01 T02320011  RH  023%=      5-min Rain = 0
KFR1 281648Z 24013KT 23/02 A2973 RMK A01 T02320016  RH  024%=      5-min Rain = 0
KFR1 281649Z 25012KT 23/03 A2973 RMK A01 T02330029  RH  026%=      5-min Rain = 0
KFR1 281650Z 25016G21KT 24/02 A2973 RMK A01 T02350021  RH  025%=      5-min Rain = 0
KFR1 281651Z 24016G21KT 24/01 A2973 RMK A01 T02350008  RH  022%=      5-min Rain = 0
KFR1 281652Z 24016KT 24/01 A2973 RMK A01 T02350008  RH  022%=      5-min Rain = 0
KFR1 281653Z 24016KT 24/01 A2973 RMK A01 T02350008  RH  022%=      5-min Rain = 0
KFR1 281654Z 24019G24KT 24/00 A2973 RMK A01 T02350000  RH  021%=      5-min Rain = 0
KFR1 281655Z 25019KT 23/M01 A2973 RMK A01 T02341007  RH  020%=      5-min Rain = 0
KFR1 281656Z 25022KT 23/M01 A2973 RMK A01 T02341007  RH  020%=      5-min Rain = 0
KFR1 281657Z 24018KT 23/M01 A2973 RMK A01 T02331006  RH  020%=      5-min Rain = 0
KFR1 281658Z 25014KT 23/00 A2973 RMK A01 T02330004  RH  022%=      5-min Rain = 0
KFR1 281659Z 26012G17KT 23/01 A2973 RMK A01 T02340008  RH  023%=      5-min Rain = 0
KFR1 281700Z 24014G19KT 24/01 A2973 RMK A01 T02350014  RH  023%=      5-min Rain = 0
KFR1 281701Z 24012KT 24/00 A2973 RMK A01 T02360004  RH  022%=      5-min Rain = 0
KFR1 281702Z 24019KT 24/01 A2973 RMK A01 T02350007  RH  022%=      5-min Rain = 0
KFR1 281703Z 25019G25KT 23/01 A2973 RMK A01 T02340007  RH  022%=      5-min Rain = 0
KFR1 281704Z 25020G25KT 23/M00 A2973 RMK A01 T02341001  RH  021%=      5-min Rain = 0
KFR1 281705Z 25014KT 23/01 A2973 RMK A01 T02330012  RH  023%=      5-min Rain = 0
KFR1 281706Z 25015G22KT 23/01 A2973 RMK A01 T02330009  RH  023%=      5-min Rain = 0
KFR1 281707Z 25013KT 23/02 A2973 RMK A01 T02340022  RH  025%=      5-min Rain = 0
KFR1 281708Z 26017G22KT 24/02 A2973 RMK A01 T02360020  RH  024%=      5-min Rain = 0
KFR1 281709Z 25018KT 24/01 A2973 RMK A01 T02360008  RH  022%=      5-min Rain = 0
KFR1 281710Z 26016KT 24/01 A2973 RMK A01 T02350014  RH  023%=      5-min Rain = 0
KFR1 281711Z 27013KT 24/02 A2973 RMK A01 T02350019  RH  024%=      5-min Rain = 0
KFR1 281712Z 25013G18KT 24/02 A2973 RMK A01 T02350021  RH  025%=      5-min Rain = 0
KFR1 281713Z 26012KT 24/02 A2973 RMK A01 T02350022  RH  025%=      5-min Rain = 0
KFR1 281714Z 26012KT 24/03 A2973 RMK A01 T02360027  RH  026%=      5-min Rain = 0
KFR1 281715Z 26012KT 24/04 A2973 RMK A01 T02360036  RH  027%=      5-min Rain = 0
KFR1 281716Z 26013G19KT 24/04 A2973 RMK A01 T02370039  RH  028%=      5-min Rain = 0
KFR1 281717Z 25012KT 24/04 A2973 RMK A01 T02380036  RH  027%=      5-min Rain = 0
KFR1 281718Z 24013KT 24/03 A2973 RMK A01 T02380034  RH  026%=      5-min Rain = 0
KFR1 281719Z 24015KT 24/03 A2973 RMK A01 T02380031  RH  026%=      5-min Rain = 0
KFR1 281720Z 24013G18KT 24/03 A2973 RMK A01 T02390030  RH  026%=      5-min Rain = 0
KFR1 281721Z 24015G21KT 24/03 A2973 RMK A01 T02390030  RH  025%=      5-min Rain = 0
KFR1 281722Z 25018KT 24/02 A2973 RMK A01 T02400021  RH  024%=      5-min Rain = 0
KFR1 281723Z 25016KT 24/02 A2973 RMK A01 T02390021  RH  024%=      5-min Rain = 0
KFR1 281724Z 24014G19KT 24/02 A2973 RMK A01 T02380018  RH  024%=      5-min Rain = 0
KFR1 281725Z 25012KT 24/03 A2973 RMK A01 T02370027  RH  025%=      5-min Rain = 0
KFR1 281726Z 26013KT 24/03 A2973 RMK A01 T02370034  RH  027%=      5-min Rain = 0
KFR1 281727Z 25015KT 24/04 A2973 RMK A01 T02390036  RH  027%=      5-min Rain = 0
KFR1 281728Z 26013KT 24/03 A2973 RMK A01 T02400030  RH  025%=      5-min Rain = 0
KFR1 281729Z 25013KT 24/03 A2973 RMK A01 T02400033  RH  026%=      5-min Rain = 0
KFR1 281730Z 26018KT 24/02 A2973 RMK A01 T02400021  RH  024%=      5-min Rain = 0
KFR1 281731Z 25018KT 24/02 A2973 RMK A01 T02400016  RH  023%=      5-min Rain = 0
KFR1 281732Z 24019G25KT 24/03 A2973 RMK A01 T02390028  RH  025%=      5-min Rain = 0
KFR1 281733Z 24021G27KT 24/01 A2972 RMK A01 T02400012  RH  022%=      5-min Rain = 0
KFR1 281734Z 24021G27KT 24/01 A2972 RMK A01 T02400010  RH  022%=      5-min Rain = 0
KFR1 281735Z 24022KT 24/00 A2972 RMK A01 T02390003  RH  021%=      5-min Rain = 0
KFR1 281736Z 23021KT 24/00 A2972 RMK A01 T02380002  RH  021%=      5-min Rain = 0
KFR1 281737Z 24019KT 24/01 A2973 RMK A01 T02380006  RH  022%=      5-min Rain = 0
KFR1 281738Z 24017G22KT 24/01 A2973 RMK A01 T02370008  RH  022%=      5-min Rain = 0
KFR1 281739Z 24017KT 24/01 A2973 RMK A01 T02380011  RH  023%=      5-min Rain = 0
KFR1 281740Z 25013G18KT 24/02 A2973 RMK A01 T02390018  RH  023%=      5-min Rain = 0
KFR1 281741Z 26014G23KT 24/03 A2973 RMK A01 T02400027  RH  025%=      5-min Rain = 0
KFR1 281742Z 26019G24KT 24/01 A2973 RMK A01 T02410013  RH  022%=      5-min Rain = 0
KFR1 281743Z 25019G25KT 24/01 A2973 RMK A01 T02400009  RH  022%=      5-min Rain = 0
KFR1 281744Z 26018G23KT 24/01 A2973 RMK A01 T02400014  RH  023%=      5-min Rain = 0
KFR1 281745Z 25017G24KT 24/03 A2973 RMK A01 T02400025  RH  025%=      5-min Rain = 0
KFR1 281746Z 26019G25KT 24/02 A2973 RMK A01 T02390015  RH  023%=      5-min Rain = 0
KFR1 281747Z 25019G26KT 24/01 A2973 RMK A01 T02390011  RH  022%=      5-min Rain = 0
KFR1 281748Z 26019G25KT 24/00 A2973 RMK A01 T02380004  RH  021%=      5-min Rain = 0
KFR1 281749Z 25016KT 24/01 A2973 RMK A01 T02370006  RH  022%=      5-min Rain = 0
KFR1 281750Z 24019G24KT 24/02 A2973 RMK A01 T02380015  RH  023%=      5-min Rain = 0
KFR1 281751Z 25021KT 24/01 A2973 RMK A01 T02380007  RH  022%=      5-min Rain = 0
KFR1 281752Z 24020KT 24/00 A2972 RMK A01 T02390003  RH  021%=      5-min Rain = 0
KFR1 281753Z 25022KT 24/00 A2972 RMK A01 T02380004  RH  021%=      5-min Rain = 0
KFR1 281754Z 24023KT 24/01 A2972 RMK A01 T02370005  RH  022%=      5-min Rain = 0
KFR1 281755Z 25020KT 24/01 A2973 RMK A01 T02370005  RH  022%=      5-min Rain = 0
KFR1 281756Z 25020KT 24/01 A2973 RMK A01 T02370012  RH  023%=      5-min Rain = 0
KFR1 281757Z 25021KT 24/01 A2972 RMK A01 T02380009  RH  022%=      5-min Rain = 0
KFR1 281758Z 25018KT 24/01 A2972 RMK A01 T02380008  RH  022%=      5-min Rain = 0
KFR1 281759Z 25015G23KT 24/02 A2972 RMK A01 T02380019  RH  024%=      5-min Rain = 0
KFR1 281800Z 25019G24KT 24/01 A2972 RMK A01 T02390012  RH  023%=      5-min Rain = 0
KFR1 281801Z 25018G23KT 24/02 A2972 RMK A01 T02390017  RH  023%=      5-min Rain = 0
KFR1 281802Z 26018G23KT 24/01 A2972 RMK A01 T02390010  RH  022%=      5-min Rain = 0
KFR1 281803Z 26019KT 24/01 A2972 RMK A01 T02380008  RH  022%=      5-min Rain = 0
KFR1 281804Z 26018KT 24/01 A2972 RMK A01 T02380013  RH  023%=      5-min Rain = 0
KFR1 281805Z 26020G25KT 24/02 A2972 RMK A01 T02380022  RH  024%=      5-min Rain = 0
KFR1 281806Z 26021G26KT 24/01 A2972 RMK A01 T02380014  RH  023%=      5-min Rain = 0
KFR1 281807Z 25018KT 24/01 A2972 RMK A01 T02380012  RH  023%=      5-min Rain = 0
KFR1 281808Z 25014KT 24/03 A2972 RMK A01 T02380026  RH  025%=      5-min Rain = 0
KFR1 281809Z 24014KT 24/03 A2972 RMK A01 T02400028  RH  025%=      5-min Rain = 0
KFR1 281810Z 24020G26KT 24/03 A2972 RMK A01 T02410026  RH  025%=      5-min Rain = 0
KFR1 281811Z 24022G30KT 24/01 A2972 RMK A01 T02410013  RH  022%=      5-min Rain = 0
KFR1 281812Z 24021G27KT 24/01 A2971 RMK A01 T02410008  RH  022%=      5-min Rain = 0
KFR1 281813Z 24021KT 24/01 A2972 RMK A01 T02410009  RH  022%=      5-min Rain = 0
KFR1 281814Z 25025KT 24/00 A2971 RMK A01 T02410002  RH  021%=      5-min Rain = 0
KFR1 281815Z 25021KT 24/00 A2972 RMK A01 T02390003  RH  021%=      5-min Rain = 0
KFR1 281816Z 24021KT 24/01 A2971 RMK A01 T02400009  RH  022%=      5-min Rain = 0
KFR1 281817Z 25023KT 24/01 A2971 RMK A01 T02400008  RH  022%=      5-min Rain = 0
KFR1 281818Z 24022G27KT 24/01 A2971 RMK A01 T02410007  RH  021%=      5-min Rain = 0
KFR1 281819Z 24022G27KT 24/01 A2971 RMK A01 T02410007  RH  021%=      5-min Rain = 0
KFR1 281820Z 25021G27KT 24/01 A2971 RMK A01 T02410009  RH  022%=      5-min Rain = 0
KFR1 281821Z 25025G32KT 24/01 A2971 RMK A01 T02410010  RH  022%=      5-min Rain = 0
KFR1 281822Z 25024KT 24/01 A2971 RMK A01 T02410009  RH  022%=      5-min Rain = 0
KFR1 281823Z 24023KT 24/00 A2971 RMK A01 T02410004  RH  021%=      5-min Rain = 0
KFR1 281824Z 24017G22KT 24/01 A2971 RMK A01 T02410014  RH  023%=      5-min Rain = 0
KFR1 281825Z 24016KT 24/03 A2971 RMK A01 T02430026  RH  024%=      5-min Rain = 0
KFR1 281826Z 24019KT 25/02 A2971 RMK A01 T02450015  RH  022%=      5-min Rain = 0
KFR1 281827Z 24022G28KT 25/02 A2971 RMK A01 T02450017  RH  023%=      5-min Rain = 0
KFR1 281828Z 25021KT 24/01 A2971 RMK A01 T02440014  RH  022%=      5-min Rain = 0
KFR1 281829Z 25022KT 24/02 A2971 RMK A01 T02430017  RH  023%=      5-min Rain = 0
KFR1 281830Z 24018G24KT 24/01 A2971 RMK A01 T02430013  RH  022%=      5-min Rain = 0
KFR1 281831Z 25020G26KT 24/01 A2971 RMK A01 T02430010  RH  022%=      5-min Rain = 0
KFR1 281832Z 25025KT 24/01 A2971 RMK A01 T02440007  RH  021%=      5-min Rain = 0
KFR1 281833Z 24023G29KT 24/00 A2971 RMK A01 T02430003  RH  021%=      5-min Rain = 0
KFR1 281834Z 24022KT 24/01 A2971 RMK A01 T02430005  RH  021%=      5-min Rain = 0
KFR1 281835Z 24020KT 24/00 A2971 RMK A01 T02430001  RH  020%=      5-min Rain = 0
KFR1 281836Z 24022G27KT 24/01 A2971 RMK A01 T02440011  RH  022%=      5-min Rain = 0
KFR1 281837Z 23026KT 24/01 A2971 RMK A01 T02440005  RH  021%=      5-min Rain = 0
KFR1 281838Z 23021KT 24/00 A2971 RMK A01 T02430001  RH  020%=      5-min Rain = 0
KFR1 281839Z 23018G23KT 24/01 A2971 RMK A01 T02430012  RH  022%=      5-min Rain = 0
KFR1 281840Z 23017KT 24/01 A2971 RMK A01 T02440011  RH  022%=      5-min Rain = 0
KFR1 281841Z 24012KT 25/03 A2971 RMK A01 T02460025  RH  024%=      5-min Rain = 0
KFR1 281842Z 24020G25KT 25/03 A2971 RMK A01 T02470028  RH  024%=      5-min Rain = 0
KFR1 281843Z 23020G26KT 25/02 A2971 RMK A01 T02480017  RH  022%=      5-min Rain = 0
KFR1 281844Z 23024KT 25/01 A297 RMK A01 T02470008  RH  021%=      5-min Rain = 0
KFR1 281845Z 23017G24KT 25/02 A2971 RMK A01 T02470016  RH  022%=      5-min Rain = 0
KFR1 281846Z 24020KT 25/01 A2971 RMK A01 T02480014  RH  022%=      5-min Rain = 0
KFR1 281847Z 25018G23KT 25/01 A2971 RMK A01 T02470011  RH  021%=      5-min Rain = 0
KFR1 281848Z 24019KT 25/02 A2971 RMK A01 T02470015  RH  022%=      5-min Rain = 0
KFR1 281849Z 24017G22KT 25/01 A2971 RMK A01 T02470012  RH  021%=      5-min Rain = 0
KFR1 281850Z 25020KT 25/01 A297 RMK A01 T02470012  RH  022%=      5-min Rain = 0
KFR1 281851Z 24026KT 25/01 A297 RMK A01 T02470012  RH  022%=      5-min Rain = 0
KFR1 281852Z 24021G27KT 25/01 A297 RMK A01 T02470011  RH  021%=      5-min Rain = 0
KFR1 281853Z 23020G28KT 25/02 A297 RMK A01 T02480020  RH  023%=      5-min Rain = 0
KFR1 281854Z 25023G29KT 25/01 A297 RMK A01 T02490008  RH  021%=      5-min Rain = 0
KFR1 281855Z 24026KT 25/00 A297 RMK A01 T02480001  RH  020%=      5-min Rain = 0
KFR1 281856Z 25023KT 25/01 A297 RMK A01 T02460005  RH  020%=      5-min Rain = 0
KFR1 281857Z 25022KT 25/01 A297 RMK A01 T02460008  RH  021%=      5-min Rain = 0
KFR1 281858Z 25020G26KT 25/01 A297 RMK A01 T02460010  RH  021%=      5-min Rain = 0
KFR1 281859Z 25023KT 25/01 A297 RMK A01 T02470010  RH  021%=      5-min Rain = 0
KFR1 281900Z 24019KT 25/01 A297 RMK A01 T02480011  RH  021%=      5-min Rain = 0
KFR1 281901Z 24017G26KT 25/02 A297 RMK A01 T02480018  RH  022%=      5-min Rain = 0
KFR1 281902Z 24021G27KT 25/02 A297 RMK A01 T02500023  RH  023%=      5-min Rain = 0
KFR1 281903Z 23025G31KT 25/01 A297 RMK A01 T02510010  RH  021%=      5-min Rain = 0
KFR1 281904Z 24027G32KT 25/M00 A2969 RMK A01 T02511001  RH  019%=      5-min Rain = 0
KFR1 281905Z 24025G33KT 25/00 A2969 RMK A01 T02500002  RH  020%=      5-min Rain = 0
KFR1 281906Z 24027KT 25/00 A297 RMK A01 T024900-0  RH  019%=      5-min Rain = 0
KFR1 281907Z 25023KT 25/00 A297 RMK A01 T02490003  RH  020%=      5-min Rain = 0
KFR1 281908Z 24025G31KT 25/00 A297 RMK A01 T02490003  RH  020%=      5-min Rain = 0
KFR1 281909Z 24022KT 25/01 A297 RMK A01 T02490006  RH  020%=      5-min Rain = 0
KFR1 281910Z 24021G26KT 25/01 A297 RMK A01 T02490007  RH  020%=      5-min Rain = 0
KFR1 281911Z 24020KT 25/01 A2969 RMK A01 T02500007  RH  020%=      5-min Rain = 0
KFR1 281912Z 25018G27KT 25/01 A297 RMK A01 T02510012  RH  021%=      5-min Rain = 0
KFR1 281913Z 24017G23KT 25/01 A2969 RMK A01 T02520010  RH  021%=      5-min Rain = 0
KFR1 281914Z 24024G32KT 25/01 A2969 RMK A01 T02520010  RH  020%=      5-min Rain = 0
KFR1 281915Z 25023G28KT 25/00 A2969 RMK A01 T02520003  RH  019%=      5-min Rain = 0
KFR1 281916Z 25020KT 25/01 A297 RMK A01 T02510008  RH  020%=      5-min Rain = 0
KFR1 281917Z 25018G24KT 25/01 A2969 RMK A01 T02510005  RH  020%=      5-min Rain = 0
KFR1 281918Z 24019KT 25/01 A2969 RMK A01 T02510009  RH  020%=      5-min Rain = 0
KFR1 281919Z 24019KT 25/01 A2969 RMK A01 T02510008  RH  020%=      5-min Rain = 0
KFR1 281920Z 24018KT 25/01 A2969 RMK A01 T02510009  RH  020%=      5-min Rain = 0
KFR1 281921Z 25016KT 25/02 A2969 RMK A01 T02510017  RH  022%=      5-min Rain = 0
KFR1 281922Z 25020G26KT 25/02 A2969 RMK A01 T02520022  RH  022%=      5-min Rain = 0
KFR1 281923Z 25019G26KT 25/01 A2969 RMK A01 T02530014  RH  021%=      5-min Rain = 0
KFR1 281924Z 24023G29KT 25/02 A2969 RMK A01 T02530016  RH  021%=      5-min Rain = 0
KFR1 281925Z 25025G31KT 25/01 A2969 RMK A01 T02530010  RH  020%=      5-min Rain = 0
KFR1 281926Z 25022KT 25/01 A2969 RMK A01 T02530014  RH  021%=      5-min Rain = 0
KFR1 281927Z 25028G34KT 25/01 A2969 RMK A01 T02530008  RH  020%=      5-min Rain = 0
KFR1 281928Z 25027KT 25/01 A2969 RMK A01 T02520005  RH  020%=      5-min Rain = 0
KFR1 281929Z 24022G29KT 25/01 A2969 RMK A01 T02510007  RH  020%=      5-min Rain = 0
KFR1 281930Z 25024G29KT 25/00 A2969 RMK A01 T02510002  RH  019%=      5-min Rain = 0
KFR1 281931Z 24022KT 25/00 A2969 RMK A01 T02510004  RH  020%=      5-min Rain = 0
KFR1 281932Z 25021G27KT 25/01 A2969 RMK A01 T02520012  RH  021%=      5-min Rain = 0
KFR1 281933Z 25017G23KT 25/01 A2969 RMK A01 T02530013  RH  021%=      5-min Rain = 0
KFR1 281934Z 25025G30KT 25/02 A2969 RMK A01 T02530020  RH  022%=      5-min Rain = 0
KFR1 281935Z 25024G30KT 25/01 A2969 RMK A01 T02540005  RH  020%=      5-min Rain = 0
KFR1 281936Z 25022KT 25/M00 A2969 RMK A01 T02531001  RH  019%=      5-min Rain = 0
KFR1 281937Z 25025KT 25/00 A2969 RMK A01 T02530002  RH  019%=      5-min Rain = 0
KFR1 281938Z 23021KT 25/00 A2969 RMK A01 T02520004  RH  020%=      5-min Rain = 0
KFR1 281939Z 24016KT 25/02 A2969 RMK A01 T02530021  RH  022%=      5-min Rain = 0
KFR1 281940Z 24017KT 25/02 A2969 RMK A01 T02540021  RH  022%=      5-min Rain = 0
KFR1 281941Z 25015KT 26/03 A2969 RMK A01 T02560030  RH  023%=      5-min Rain = 0
KFR1 281942Z 24014G19KT 26/03 A2969 RMK A01 T02560026  RH  023%=      5-min Rain = 0
KFR1 281943Z 24016KT 26/03 A2969 RMK A01 T02570026  RH  022%=      5-min Rain = 0
KFR1 281944Z 23017G22KT 26/02 A2969 RMK A01 T02580023  RH  022%=      5-min Rain = 0
KFR1 281945Z 23022G29KT 26/01 A2968 RMK A01 T02580014  RH  020%=      5-min Rain = 0
KFR1 281946Z 24023G28KT 26/02 A2968 RMK A01 T02580015  RH  021%=      5-min Rain = 0
KFR1 281947Z 24022G27KT 26/00 A2968 RMK A01 T02580004  RH  019%=      5-min Rain = 0
KFR1 281948Z 24019G26KT 26/01 A2968 RMK A01 T02570007  RH  019%=      5-min Rain = 0
KFR1 281949Z 23025G30KT 26/00 A2968 RMK A01 T02570000  RH  019%=      5-min Rain = 0
KFR1 281950Z 24022G30KT 26/01 A2968 RMK A01 T02570007  RH  019%=      5-min Rain = 0
KFR1 281951Z 24020G31KT 26/M00 A2968 RMK A01 T02571002  RH  018%=      5-min Rain = 0
KFR1 281952Z 24017G24KT 26/01 A2968 RMK A01 T02570013  RH  020%=      5-min Rain = 0
KFR1 281953Z 25020G27KT 26/01 A2968 RMK A01 T02570007  RH  019%=      5-min Rain = 0
KFR1 281954Z 25026G31KT 26/M00 A2968 RMK A01 T02581001  RH  018%=      5-min Rain = 0
KFR1 281955Z 24026KT 26/M00 A2968 RMK A01 T02571004  RH  018%=      5-min Rain = 0
KFR1 281956Z 25024KT 26/M00 A2968 RMK A01 T02571004  RH  018%=      5-min Rain = 0
KFR1 281957Z 25029KT 26/M01 A2968 RMK A01 T02571012  RH  017%=      5-min Rain = 0
KFR1 281958Z 25024G29KT 26/M01 A2968 RMK A01 T02551009  RH  018%=      5-min Rain = 0
KFR1 281959Z 24028KT 26/M01 A2968 RMK A01 T02561008  RH  018%=      5-min Rain = 0
KFR1 282000Z 24023KT 26/M01 A2968 RMK A01 T02551012  RH  017%=      5-min Rain = 0
KFR1 282001Z 24017KT 26/M00 A2968 RMK A01 T02561002  RH  018%=      5-min Rain = 0
KFR1 282002Z 24020KT 26/00 A2968 RMK A01 T02560001  RH  019%=      5-min Rain = 0
KFR1 282003Z 24016KT 26/01 A2968 RMK A01 T02570005  RH  019%=      5-min Rain = 0
KFR1 282004Z 24022KT 26/01 A2968 RMK A01 T02570009  RH  020%=      5-min Rain = 0
KFR1 282005Z 23023G29KT 26/00 A2968 RMK A01 T02580004  RH  019%=      5-min Rain = 0
KFR1 282006Z 23025G30KT 26/M00 A2968 RMK A01 T02591003  RH  018%=      5-min Rain = 0
KFR1 282007Z 23024G29KT 26/00 A2968 RMK A01 T02590001  RH  018%=      5-min Rain = 0
KFR1 282008Z 23025G30KT 26/00 A2968 RMK A01 T02590004  RH  019%=      5-min Rain = 0
KFR1 282009Z 23027G32KT 26/M00 A2968 RMK A01 T02601003  RH  018%=      5-min Rain = 0
KFR1 282010Z 23026G31KT 26/M01 A2968 RMK A01 T02591012  RH  017%=      5-min Rain = 0
KFR1 282011Z 23021G26KT 26/M01 A2968 RMK A01 T02581006  RH  018%=      5-min Rain = 0
KFR1 282012Z 23023KT 26/00 A2968 RMK A01 T025800-0  RH  018%=      5-min Rain = 0
KFR1 282013Z 23022G29KT 26/01 A2968 RMK A01 T02580007  RH  019%=      5-min Rain = 0
KFR1 282014Z 23021G26KT 26/00 A2968 RMK A01 T02590003  RH  019%=      5-min Rain = 0
KFR1 282015Z 24020G28KT 26/01 A2968 RMK A01 T02590012  RH  020%=      5-min Rain = 0
KFR1 282016Z 23020G25KT 26/01 A2968 RMK A01 T02590011  RH  020%=      5-min Rain = 0
KFR1 282017Z 24021G29KT 26/01 A2968 RMK A01 T02610011  RH  020%=      5-min Rain = 0
KFR1 282018Z 25023G30KT 26/01 A2968 RMK A01 T02600008  RH  019%=      5-min Rain = 0
KFR1 282019Z 25027KT 26/M01 A2968 RMK A01 T02571006  RH  018%=      5-min Rain = 0
KFR1 282020Z 25024G32KT 26/M01 A2968 RMK A01 T02551008  RH  018%=      5-min Rain = 0
KFR1 282021Z 25023G30KT 26/M00 A2968 RMK A01 T02551004  RH  018%=      5-min Rain = 0
KFR1 282022Z 26020KT 26/M01 A2968 RMK A01 T02561006  RH  018%=      5-min Rain = 0
KFR1 282023Z 26021G26KT 26/M01 A2968 RMK A01 T02561012  RH  017%=      5-min Rain = 0
KFR1 282024Z 25019G24KT 26/M01 A2968 RMK A01 T02561005  RH  018%=      5-min Rain = 0
KFR1 282025Z 25017G26KT 26/00 A2968 RMK A01 T02560004  RH  019%=      5-min Rain = 0
KFR1 282026Z 24020G25KT 26/01 A2968 RMK A01 T02580008  RH  020%=      5-min Rain = 0
KFR1 282027Z 24021G27KT 26/01 A2968 RMK A01 T02590007  RH  019%=      5-min Rain = 0
KFR1 282028Z 24024KT 26/01 A2968 RMK A01 T02600006  RH  019%=      5-min Rain = 0
KFR1 282029Z 24024G30KT 26/01 A2968 RMK A01 T02600006  RH  019%=      5-min Rain = 0
KFR1 282030Z 24026G31KT 26/M01 A2968 RMK A01 T02611006  RH  017%=      5-min Rain = 0
KFR1 282031Z 23021G28KT 26/M01 A2968 RMK A01 T02591007  RH  017%=      5-min Rain = 0
KFR1 282032Z 24015KT 26/01 A2968 RMK A01 T02590006  RH  019%=      5-min Rain = 0
KFR1 282033Z 24016G21KT 26/02 A2968 RMK A01 T02610017  RH  020%=      5-min Rain = 0
KFR1 282034Z 23019G24KT 26/01 A2968 RMK A01 T02630013  RH  020%=      5-min Rain = 0
KFR1 282035Z 24023G30KT 26/02 A2968 RMK A01 T02630015  RH  020%=      5-min Rain = 0
KFR1 282036Z 25026KT 26/M00 A2968 RMK A01 T02631002  RH  018%=      5-min Rain = 0
KFR1 282037Z 25021G26KT 26/M01 A2968 RMK A01 T02611006  RH  017%=      5-min Rain = 0
KFR1 282038Z 25018KT 26/00 A2968 RMK A01 T02600001  RH  018%=      5-min Rain = 0
KFR1 282039Z 24019G24KT 26/01 A2968 RMK A01 T02610007  RH  019%=      5-min Rain = 0
KFR1 282040Z 24024G30KT 26/01 A2968 RMK A01 T02620010  RH  019%=      5-min Rain = 0
KFR1 282041Z 24026G31KT 26/00 A2968 RMK A01 T02620004  RH  018%=      5-min Rain = 0
KFR1 282042Z 25027G33KT 26/00 A2968 RMK A01 T02620002  RH  018%=      5-min Rain = 0
KFR1 282043Z 25025G30KT 26/M01 A2968 RMK A01 T02601007  RH  017%=      5-min Rain = 0
KFR1 282044Z 24028G33KT 26/M01 A2968 RMK A01 T02571010  RH  017%=      5-min Rain = 0
KFR1 282045Z 24026KT 26/M01 A2968 RMK A01 T02571014  RH  017%=      5-min Rain = 0
KFR1 282046Z 24023KT 26/M01 A2968 RMK A01 T02561010  RH  017%=      5-min Rain = 0
KFR1 282047Z 25022KT 26/M00 A2968 RMK A01 T02571003  RH  018%=      5-min Rain = 0
KFR1 282048Z 24022G28KT 26/M01 A2968 RMK A01 T02591006  RH  018%=      5-min Rain = 0
KFR1 282049Z 24021G27KT 26/M00 A2968 RMK A01 T02591002  RH  018%=      5-min Rain = 0
KFR1 282050Z 24022KT 26/00 A2968 RMK A01 T02600002  RH  018%=      5-min Rain = 0
KFR1 282051Z 25022G30KT 26/00 A2968 RMK A01 T02610000  RH  018%=      5-min Rain = 0
KFR1 282052Z 24022G29KT 26/00 A2968 RMK A01 T02610000  RH  018%=      5-min Rain = 0
KFR1 282053Z 25020KT 26/01 A2968 RMK A01 T02610011  RH  020%=      5-min Rain = 0
KFR1 282054Z 25021G28KT 26/02 A2968 RMK A01 T02620015  RH  020%=      5-min Rain = 0
KFR1 282055Z 25021G28KT 26/01 A2968 RMK A01 T02620009  RH  019%=      5-min Rain = 0
KFR1 282056Z 25021G27KT 26/01 A2968 RMK A01 T02620010  RH  019%=      5-min Rain = 0
KFR1 282057Z 24025KT 26/01 A2968 RMK A01 T02620008  RH  019%=      5-min Rain = 0
KFR1 282058Z 24024KT 26/M00 A2968 RMK A01 T02611004  RH  018%=      5-min Rain = 0
KFR1 282059Z 24024G30KT 26/M00 A2968 RMK A01 T02611004  RH  018%=      5-min Rain = 0
KFR1 282100Z 23022KT 26/M01 A2967 RMK A01 T02611006  RH  017%=      5-min Rain = 0
KFR1 282101Z 24023G29KT 26/M01 A2968 RMK A01 T02601005  RH  018%=      5-min Rain = 0
KFR1 282102Z 25018G24KT 26/00 A2968 RMK A01 T02600002  RH  018%=      5-min Rain = 0
KFR1 282103Z 25016KT 26/02 A2968 RMK A01 T02620017  RH  020%=      5-min Rain = 0
KFR1 282104Z 25014KT 26/03 A2968 RMK A01 T02630025  RH  021%=      5-min Rain = 0
KFR1 282105Z 24017KT 26/02 A2968 RMK A01 T02640021  RH  021%=      5-min Rain = 0
KFR1 282106Z 25021KT 26/01 A2968 RMK A01 T02630009  RH  019%=      5-min Rain = 0
KFR1 282107Z 25020G26KT 26/00 A2968 RMK A01 T02620002  RH  018%=      5-min Rain = 0
KFR1 282108Z 26023G28KT 26/00 A2968 RMK A01 T02600002  RH  018%=      5-min Rain = 0
KFR1 282109Z 26021G26KT 26/00 A2968 RMK A01 T02590001  RH  018%=      5-min Rain = 0
KFR1 282110Z 26021G26KT 26/00 A2968 RMK A01 T02570004  RH  019%=      5-min Rain = 0
KFR1 282111Z 25020G25KT 26/01 A2968 RMK A01 T02560011  RH  020%=      5-min Rain = 0
KFR1 282112Z 25022KT 26/M00 A2968 RMK A01 T02551003  RH  018%=      5-min Rain = 0
KFR1 282113Z 25022KT 26/M01 A2968 RMK A01 T02561010  RH  017%=      5-min Rain = 0
KFR1 282114Z 25018KT 26/M00 A2968 RMK A01 T02561004  RH  018%=      5-min Rain = 0
KFR1 282115Z 25019G24KT 26/01 A2968 RMK A01 T02570005  RH  019%=      5-min Rain = 0
KFR1 282116Z 25022KT 26/00 A2968 RMK A01 T02590000  RH  018%=      5-min Rain = 0
KFR1 282117Z 24024G29KT 26/M01 A2968 RMK A01 T02591008  RH  017%=      5-min Rain = 0
KFR1 282118Z 24021G26KT 26/M01 A2968 RMK A01 T02591010  RH  017%=      5-min Rain = 0
KFR1 282119Z 25024G30KT 26/M02 A2968 RMK A01 T02591016  RH  016%=      5-min Rain = 0
KFR1 282120Z 25025KT 26/M01 A2968 RMK A01 T02591013  RH  017%=      5-min Rain = 0
KFR1 282121Z 24021G27KT 26/00 A2968 RMK A01 T02580000  RH  018%=      5-min Rain = 0
KFR1 282122Z 24020KT 26/00 A2968 RMK A01 T02580003  RH  019%=      5-min Rain = 0
KFR1 282123Z 25018G24KT 26/00 A2968 RMK A01 T02580004  RH  019%=      5-min Rain = 0
KFR1 282124Z 25019KT 26/00 A2968 RMK A01 T025700-0  RH  018%=      5-min Rain = 0
KFR1 282125Z 24020KT 26/M01 A2968 RMK A01 T02561007  RH  018%=      5-min Rain = 0
KFR1 282126Z 24019KT 26/M01 A2968 RMK A01 T02561005  RH  018%=      5-min Rain = 0
KFR1 282127Z 24018KT 26/M00 A2968 RMK A01 T02561004  RH  018%=      5-min Rain = 0
KFR1 282128Z 24019G24KT 26/M00 A2968 RMK A01 T02551002  RH  018%=      5-min Rain = 0
KFR1 282129Z 25020KT 26/M01 A2968 RMK A01 T02551013  RH  017%=      5-min Rain = 0
KFR1 282130Z 24016KT 25/M00 A2968 RMK A01 T02541002  RH  019%=      5-min Rain = 0
KFR1 282131Z 25017G22KT 25/01 A2968 RMK A01 T02530005  RH  020%=      5-min Rain = 0
KFR1 282132Z 25016KT 25/M00 A2968 RMK A01 T02531001  RH  019%=      5-min Rain = 0
KFR1 282133Z 25015KT 25/00 A2968 RMK A01 T02530004  RH  019%=      5-min Rain = 0
KFR1 282134Z 24014KT 25/01 A2968 RMK A01 T02520012  RH  021%=      5-min Rain = 0
KFR1 282135Z 24015G21KT 25/02 A2968 RMK A01 T02520015  RH  021%=      5-min Rain = 0
KFR1 282136Z 25019G24KT 25/M00 A2968 RMK A01 T02521001  RH  019%=      5-min Rain = 0
KFR1 282137Z 25017G22KT 25/00 A2968 RMK A01 T025200-0  RH  019%=      5-min Rain = 0
KFR1 282138Z 25019G26KT 25/M01 A2968 RMK A01 T02521005  RH  018%=      5-min Rain = 0
KFR1 282139Z 25018KT 25/M01 A2968 RMK A01 T02511008  RH  018%=      5-min Rain = 0
KFR1 282140Z 25018KT 25/M01 A2968 RMK A01 T02511005  RH  018%=      5-min Rain = 0
KFR1 282141Z 24018KT 25/M00 A2968 RMK A01 T02511003  RH  019%=      5-min Rain = 0
KFR1 282142Z 24021KT 25/M01 A2968 RMK A01 T02521010  RH  018%=      5-min Rain = 0
KFR1 282143Z 24019G26KT 25/M01 A2968 RMK A01 T02511009  RH  018%=      5-min Rain = 0
KFR1 282144Z 24019KT 25/M01 A2968 RMK A01 T02511008  RH  018%=      5-min Rain = 0
KFR1 282145Z 25018G24KT 25/M01 A2968 RMK A01 T02511005  RH  018%=      5-min Rain = 0
KFR1 282146Z 25018G27KT 25/01 A2968 RMK A01 T02530007  RH  020%=      5-min Rain = 0
KFR1 282147Z 24019KT 25/M00 A2968 RMK A01 T02541003  RH  018%=      5-min Rain = 0
KFR1 282148Z 24017KT 26/00 A2968 RMK A01 T02550000  RH  019%=      5-min Rain = 0
KFR1 282149Z 24019G24KT 25/00 A2968 RMK A01 T02540001  RH  019%=      5-min Rain = 0
KFR1 282150Z 24019G24KT 25/M01 A2968 RMK A01 T02531005  RH  018%=      5-min Rain = 0
KFR1 282151Z 24017G22KT 25/00 A2968 RMK A01 T02520004  RH  020%=      5-min Rain = 0
KFR1 282152Z 24018G25KT 25/00 A2968 RMK A01 T025100-0  RH  019%=      5-min Rain = 0
KFR1 282153Z 24021G29KT 25/M01 A2967 RMK A01 T02501006  RH  018%=      5-min Rain = 0
KFR1 282154Z 24021KT 25/M01 A2968 RMK A01 T02501013  RH  018%=      5-min Rain = 0
KFR1 282155Z 24022G30KT 25/M01 A2968 RMK A01 T02501011  RH  018%=      5-min Rain = 0
KFR1 282156Z 24020G25KT 25/M01 A2968 RMK A01 T02501014  RH  017%=      5-min Rain = 0
KFR1 282157Z 24018KT 25/M01 A2968 RMK A01 T02501008  RH  018%=      5-min Rain = 0
KFR1 282158Z 25018KT 25/M01 A2968 RMK A01 T02501009  RH  018%=      5-min Rain = 0
KFR1 282159Z 23018KT 25/M01 A2968 RMK A01 T02501010  RH  018%=      5-min Rain = 0
KFR1 282200Z 24016KT 25/M01 A2968 RMK A01 T02511006  RH  018%=      5-min Rain = 0
KFR1 282201Z 23016KT 25/M01 A2968 RMK A01 T02511007  RH  018%=      5-min Rain = 0
KFR1 282202Z 24017KT 25/M00 A2968 RMK A01 T02511001  RH  019%=      5-min Rain = 0
KFR1 282203Z 24014KT 25/00 A2968 RMK A01 T025100-0  RH  019%=      5-min Rain = 0
KFR1 282204Z 24016KT 25/01 A2968 RMK A01 T02520005  RH  020%=      5-min Rain = 0
KFR1 282205Z 24018KT 25/M00 A2968 RMK A01 T02511002  RH  019%=      5-min Rain = 0
KFR1 282206Z 24019G24KT 25/M00 A2968 RMK A01 T02521002  RH  019%=      5-min Rain = 0
KFR1 282207Z 24016KT 25/M00 A2968 RMK A01 T02521001  RH  019%=      5-min Rain = 0
KFR1 282208Z 24018KT 25/01 A2968 RMK A01 T02530007  RH  020%=      5-min Rain = 0
KFR1 282209Z 24018KT 25/M00 A2968 RMK A01 T02531001  RH  019%=      5-min Rain = 0
KFR1 282210Z 24017KT 25/00 A2968 RMK A01 T02530004  RH  019%=      5-min Rain = 0
KFR1 282211Z 24018KT 25/01 A2968 RMK A01 T02530005  RH  020%=      5-min Rain = 0
KFR1 282212Z 24018KT 25/00 A2968 RMK A01 T02520003  RH  019%=      5-min Rain = 0
KFR1 282213Z 23016KT 25/M00 A2968 RMK A01 T02521001  RH  019%=      5-min Rain = 0
KFR1 282214Z 24014KT 25/01 A2968 RMK A01 T02520006  RH  020%=      5-min Rain = 0
KFR1 282215Z 24016KT 25/01 A2968 RMK A01 T02520012  RH  021%=      5-min Rain = 0
KFR1 282216Z 24016KT 25/00 A2968 RMK A01 T02530004  RH  019%=      5-min Rain = 0
KFR1 282217Z 25017G22KT 25/M01 A2968 RMK A01 T02541006  RH  018%=      5-min Rain = 0
KFR1 282218Z 24019G26KT 26/M00 A2968 RMK A01 T02561003  RH  018%=      5-min Rain = 0
KFR1 282219Z 24019KT 26/M01 A2968 RMK A01 T02571009  RH  017%=      5-min Rain = 0
KFR1 282220Z 24016G22KT 26/M01 A2968 RMK A01 T02571008  RH  017%=      5-min Rain = 0
KFR1 282221Z 24020KT 26/M01 A2968 RMK A01 T02571007  RH  018%=      5-min Rain = 0
KFR1 282222Z 24021KT 26/M01 A2968 RMK A01 T02561012  RH  017%=      5-min Rain = 0
KFR1 282223Z 24019KT 26/M02 A2968 RMK A01 T02551015  RH  017%=      5-min Rain = 0
KFR1 282224Z 24015KT 25/M01 A2968 RMK A01 T02541012  RH  017%=      5-min Rain = 0
KFR1 282225Z 22021G26KT 25/M01 A2967 RMK A01 T02531009  RH  018%=      5-min Rain = 0
KFR1 282226Z 23021KT 25/M01 A2968 RMK A01 T02531011  RH  018%=      5-min Rain = 0
KFR1 282227Z 23021G26KT 25/M01 A2968 RMK A01 T02531011  RH  018%=      5-min Rain = 0
KFR1 282228Z 24020KT 25/M01 A2968 RMK A01 T02541012  RH  017%=      5-min Rain = 0
KFR1 282229Z 23019KT 26/M01 A2968 RMK A01 T02561008  RH  018%=      5-min Rain = 0
KFR1 282230Z 23015G20KT 26/00 A2968 RMK A01 T025600-0  RH  019%=      5-min Rain = 0
KFR1 282231Z 24018KT 26/M00 A2968 RMK A01 T02561002  RH  018%=      5-min Rain = 0
KFR1 282232Z 23016KT 26/00 A2968 RMK A01 T025500-0  RH  019%=      5-min Rain = 0
KFR1 282233Z 23015KT 26/01 A2968 RMK A01 T02550006  RH  020%=      5-min Rain = 0
KFR1 282234Z 22016KT 26/00 A2968 RMK A01 T02550003  RH  019%=      5-min Rain = 0
KFR1 282235Z 23017KT 26/01 A2968 RMK A01 T02560007  RH  020%=      5-min Rain = 0
KFR1 282236Z 23017KT 26/00 A2968 RMK A01 T025800-0  RH  018%=      5-min Rain = 0
KFR1 282237Z 23018KT 26/M00 A2968 RMK A01 T02581003  RH  018%=      5-min Rain = 0
KFR1 282238Z 23018KT 26/M01 A2968 RMK A01 T02581009  RH  017%=      5-min Rain = 0
KFR1 282239Z 23015KT 26/M00 A2968 RMK A01 T02571004  RH  018%=      5-min Rain = 0
KFR1 282240Z 22014KT 26/00 A2968 RMK A01 T025600-0  RH  019%=      5-min Rain = 0
KFR1 282241Z 24012G17KT 26/01 A2968 RMK A01 T02560005  RH  019%=      5-min Rain = 0
KFR1 282242Z 24013KT 26/00 A2968 RMK A01 T02550004  RH  019%=      5-min Rain = 0
KFR1 282243Z 23012KT 26/M00 A2968 RMK A01 T02551004  RH  018%=      5-min Rain = 0
KFR1 282244Z 23013G19KT 26/01 A2968 RMK A01 T02550011  RH  020%=      5-min Rain = 0
KFR1 282245Z 22017KT 26/M00 A2968 RMK A01 T02551002  RH  018%=      5-min Rain = 0
KFR1 282246Z 22017G23KT 26/M01 A2968 RMK A01 T02561005  RH  018%=      5-min Rain = 0
KFR1 282247Z 23017G25KT 26/M00 A2968 RMK A01 T02571001  RH  018%=      5-min Rain = 0
KFR1 282248Z 22018G24KT 26/M01 A2968 RMK A01 T02581010  RH  017%=      5-min Rain = 0
KFR1 282249Z 23018KT 26/M00 A2968 RMK A01 T02581001  RH  018%=      5-min Rain = 0
KFR1 282250Z 23021G26KT 26/M01 A2967 RMK A01 T02591006  RH  017%=      5-min Rain = 0
KFR1 282251Z 24018KT 26/M00 A2968 RMK A01 T02601001  RH  018%=      5-min Rain = 0
KFR1 282252Z 23017G23KT 26/01 A2968 RMK A01 T02610011  RH  020%=      5-min Rain = 0
KFR1 282253Z 23020KT 26/M00 A2968 RMK A01 T02611001  RH  018%=      5-min Rain = 0
KFR1 282254Z 23019KT 26/M01 A2968 RMK A01 T02611007  RH  017%=      5-min Rain = 0
KFR1 282255Z 23020KT 26/M01 A2968 RMK A01 T02611007  RH  017%=      5-min Rain = 0
KFR1 282256Z 23017KT 26/01 A2968 RMK A01 T02610005  RH  019%=      5-min Rain = 0
KFR1 282257Z 22015G20KT 26/01 A2968 RMK A01 T02620011  RH  020%=      5-min Rain = 0
KFR1 282258Z 23014G19KT 26/01 A2968 RMK A01 T02640006  RH  019%=      5-min Rain = 0
KFR1 282259Z 23016G21KT 26/01 A2968 RMK A01 T02640010  RH  019%=      5-min Rain = 0
KFR1 282300Z 24014G20KT 27/01 A2968 RMK A01 T02650011  RH  019%=      5-min Rain = 0
KFR1 282301Z 25015KT 27/00 A2968 RMK A01 T02650004  RH  018%=      5-min Rain = 0
KFR1 282302Z 25012KT 27/01 A2968 RMK A01 T02650009  RH  019%=      5-min Rain = 0
KFR1 282303Z 25018G24KT 27/M01 A2968 RMK A01 T02651005  RH  017%=      5-min Rain = 0
KFR1 282304Z 25019KT 27/M01 A2968 RMK A01 T02651010  RH  017%=      5-min Rain = 0
KFR1 282305Z 25016G21KT 27/M01 A2968 RMK A01 T02651007  RH  017%=      5-min Rain = 0
KFR1 282306Z 24016KT 26/00 A2968 RMK A01 T02640002  RH  018%=      5-min Rain = 0
KFR1 282307Z 23022KT 26/M01 A2968 RMK A01 T02641005  RH  017%=      5-min Rain = 0
KFR1 282308Z 24022KT 26/M01 A2968 RMK A01 T02641014  RH  016%=      5-min Rain = 0
KFR1 282309Z 24021KT 26/M02 A2968 RMK A01 T02631017  RH  016%=      5-min Rain = 0
KFR1 282310Z 24021G26KT 26/M02 A2968 RMK A01 T02621016  RH  016%=      5-min Rain = 0
KFR1 282311Z 23020G25KT 26/M02 A2968 RMK A01 T02621015  RH  016%=      5-min Rain = 0
KFR1 282312Z 24018G24KT 26/M02 A2968 RMK A01 T02611023  RH  015%=      5-min Rain = 0
KFR1 282313Z 24021KT 26/M02 A2968 RMK A01 T02591024  RH  015%=      5-min Rain = 0
KFR1 282314Z 23023KT 26/M03 A2967 RMK A01 T02581029  RH  015%=      5-min Rain = 0
KFR1 282315Z 23021KT 26/M03 A2967 RMK A01 T02581030  RH  015%=      5-min Rain = 0
KFR1 282316Z 23020KT 26/M03 A2967 RMK A01 T02571031  RH  015%=      5-min Rain = 0
KFR1 282317Z 23017KT 26/M02 A2968 RMK A01 T02571023  RH  016%=      5-min Rain = 0
KFR1 282318Z 23017G22KT 26/M01 A2968 RMK A01 T02571013  RH  017%=      5-min Rain = 0
KFR1 282319Z 23020G25KT 26/M02 A2968 RMK A01 T02571024  RH  016%=      5-min Rain = 0
KFR1 282320Z 23017G23KT 26/M03 A2968 RMK A01 T02581028  RH  015%=      5-min Rain = 0
KFR1 282321Z 24020G25KT 26/M02 A2968 RMK A01 T02581023  RH  016%=      5-min Rain = 0
KFR1 282322Z 24020G27KT 26/M03 A2968 RMK A01 T02581032  RH  015%=      5-min Rain = 0
KFR1 282323Z 24015KT 26/M02 A2968 RMK A01 T02581023  RH  016%=      5-min Rain = 0
KFR1 282324Z 23015KT 26/M01 A2968 RMK A01 T02581012  RH  017%=      5-min Rain = 0
KFR1 282325Z 24014KT 26/M01 A2968 RMK A01 T02581013  RH  017%=      5-min Rain = 0
KFR1 282326Z 24016KT 26/M02 A2968 RMK A01 T02581015  RH  017%=      5-min Rain = 0
KFR1 282327Z 24013KT 26/M01 A2968 RMK A01 T02581007  RH  017%=      5-min Rain = 0
KFR1 282328Z 24012KT 26/M01 A2968 RMK A01 T02581006  RH  018%=      5-min Rain = 0
KFR1 282329Z 24013KT 26/M00 A2968 RMK A01 T02591001  RH  018%=      5-min Rain = 0
KFR1 282330Z 23013KT 26/00 A2968 RMK A01 T02610001  RH  018%=      5-min Rain = 0
KFR1 282331Z 23013KT 26/00 A2968 RMK A01 T02610003  RH  018%=      5-min Rain = 0
KFR1 282332Z 23015KT 26/00 A2968 RMK A01 T02620001  RH  018%=      5-min Rain = 0
KFR1 282333Z 24014KT 26/01 A2968 RMK A01 T02620007  RH  019%=      5-min Rain = 0
KFR1 282334Z 23016G22KT 26/M01 A2968 RMK A01 T02621007  RH  017%=      5-min Rain = 0
KFR1 282335Z 23015KT 26/M01 A2968 RMK A01 T02621012  RH  016%=      5-min Rain = 0
KFR1 282336Z 24014KT 26/M00 A2968 RMK A01 T02621004  RH  017%=      5-min Rain = 0
KFR1 282337Z 23015KT 26/M00 A2968 RMK A01 T02621003  RH  018%=      5-min Rain = 0
KFR1 282338Z 24013KT 26/00 A2968 RMK A01 T02620003  RH  018%=      5-min Rain = 0
KFR1 282339Z 22018KT 26/M00 A2968 RMK A01 T02621002  RH  018%=      5-min Rain = 0
KFR1 282340Z 23018KT 26/M01 A2968 RMK A01 T02621006  RH  017%=      5-min Rain = 0
KFR1 282341Z 23014KT 26/M01 A2968 RMK A01 T02611005  RH  017%=      5-min Rain = 0
KFR1 282342Z 24016KT 26/M00 A2968 RMK A01 T02601004  RH  018%=      5-min Rain = 0
KFR1 282343Z 23017KT 26/M01 A2968 RMK A01 T02591011  RH  017%=      5-min Rain = 0
KFR1 282344Z 24014KT 26/M01 A2968 RMK A01 T02581013  RH  017%=      5-min Rain = 0
KFR1 282345Z 24012KT 26/M01 A2968 RMK A01 T02571005  RH  018%=      5-min Rain = 0
KFR1 282346Z 24015KT 26/M01 A2968 RMK A01 T02571005  RH  018%=      5-min Rain = 0
KFR1 282347Z 24012KT 26/M01 A2968 RMK A01 T02561008  RH  017%=      5-min Rain = 0
KFR1 282348Z 24014KT 26/00 A2968 RMK A01 T02560001  RH  019%=      5-min Rain = 0
KFR1 282349Z 24014KT 26/M00 A2968 RMK A01 T02561004  RH  018%=      5-min Rain = 0
KFR1 282350Z 24010KT 26/01 A2968 RMK A01 T02570008  RH  020%=      5-min Rain = 0
KFR1 282351Z 25014KT 26/00 A2968 RMK A01 T02590004  RH  019%=      5-min Rain = 0
KFR1 282352Z 24014KT 26/M00 A2968 RMK A01 T02591002  RH  018%=      5-min Rain = 0
KFR1 282353Z 24014KT 26/M01 A2968 RMK A01 T02591011  RH  017%=      5-min Rain = 0
KFR1 282354Z 24016G22KT 26/M02 A2968 RMK A01 T02601015  RH  016%=      5-min Rain = 0
KFR1 282355Z 23012G18KT 26/M00 A2968 RMK A01 T02601003  RH  018%=      5-min Rain = 0
KFR1 282356Z 23015KT 26/M01 A2968 RMK A01 T02601010  RH  017%=      5-min Rain = 0
KFR1 282357Z 23012KT 26/M00 A2968 RMK A01 T02601004  RH  018%=      5-min Rain = 0
KFR1 282358Z 23013KT 26/00 A2968 RMK A01 T02590002  RH  019%=      5-min Rain = 0
KFR1 282359Z 24012KT 26/M00 A2968 RMK A01 T02591002  RH  018%=      5-min Rain = 0
KFR1 290000Z 23013KT 26/M00 A2968 RMK A01 T02591004  RH  018%=      5-min Rain = 0
KFR1 290001Z 23012KT 26/M00 A2968 RMK A01 T02591001  RH  018%=      5-min Rain = 0
KFR1 290002Z 24013KT 26/01 A2968 RMK A01 T02590006  RH  019%=      5-min Rain = 0
KFR1 290003Z 24013KT 26/00 A2968 RMK A01 T02590002  RH  019%=      5-min Rain = 0
KFR1 290004Z 23011KT 26/01 A2968 RMK A01 T02580006  RH  019%=      5-min Rain = 0
KFR1 290005Z 24009KT 26/01 A2968 RMK A01 T02580014  RH  020%=      5-min Rain = 0
KFR1 290006Z 24011KT 26/01 A2968 RMK A01 T02580011  RH  020%=      5-min Rain = 0
KFR1 290007Z 23010KT 26/01 A2968 RMK A01 T02580011  RH  020%=      5-min Rain = 0
KFR1 290008Z 24014KT 26/01 A2968 RMK A01 T02580009  RH  020%=      5-min Rain = 0
KFR1 290009Z 24013KT 26/M00 A2968 RMK A01 T02581003  RH  018%=      5-min Rain = 0
KFR1 290010Z 23013KT 26/00 A2968 RMK A01 T02580001  RH  019%=      5-min Rain = 0
KFR1 290011Z 23015KT 26/M01 A2968 RMK A01 T02571010  RH  017%=      5-min Rain = 0
KFR1 290012Z 23011KT 26/M00 A2968 RMK A01 T02571004  RH  018%=      5-min Rain = 0
KFR1 290013Z 23012KT 26/M00 A2968 RMK A01 T02561004  RH  018%=      5-min Rain = 0
KFR1 290014Z 24013KT 26/M00 A2968 RMK A01 T02571004  RH  018%=      5-min Rain = 0
KFR1 290015Z 24011KT 26/M00 A2968 RMK A01 T02571001  RH  018%=      5-min Rain = 0
KFR1 290016Z 23009KT 26/01 A2968 RMK A01 T02570010  RH  020%=      5-min Rain = 0
KFR1 290017Z 23011KT 26/02 A2968 RMK A01 T02550017  RH  021%=      5-min Rain = 0
KFR1 290018Z 23011KT 26/01 A2968 RMK A01 T02550010  RH  020%=      5-min Rain = 0
KFR1 290019Z 23012KT 26/00 A2968 RMK A01 T02560004  RH  019%=      5-min Rain = 0
KFR1 290020Z 23010KT 26/00 A2968 RMK A01 T02560004  RH  019%=      5-min Rain = 0
KFR1 290021Z 23011KT 26/01 A2968 RMK A01 T02570009  RH  020%=      5-min Rain = 0
KFR1 290022Z 23008KT 26/02 A2968 RMK A01 T02570020  RH  021%=      5-min Rain = 0
KFR1 290023Z 23011KT 26/02 A2968 RMK A01 T02560024  RH  022%=      5-min Rain = 0
KFR1 290024Z 23011KT 26/02 A2969 RMK A01 T02550015  RH  021%=      5-min Rain = 0
KFR1 290025Z 22010KT 26/01 A2969 RMK A01 T02560013  RH  021%=      5-min Rain = 0
KFR1 290026Z 22011KT 26/02 A2969 RMK A01 T02560015  RH  021%=      5-min Rain = 0
KFR1 290027Z 22012KT 26/01 A2969 RMK A01 T02560009  RH  020%=      5-min Rain = 0
KFR1 290028Z 23009KT 26/01 A2969 RMK A01 T02560013  RH  020%=      5-min Rain = 0
KFR1 290029Z 23008KT 26/02 A2969 RMK A01 T02560020  RH  022%=      5-min Rain = 0
KFR1 290030Z 22008KT 26/02 A2969 RMK A01 T02560017  RH  021%=      5-min Rain = 0
KFR1 290031Z 22009KT 26/02 A2969 RMK A01 T02560022  RH  022%=      5-min Rain = 0
KFR1 290032Z 22007KT 26/03 A2969 RMK A01 T02560026  RH  022%=      5-min Rain = 0
KFR1 290033Z 21009KT 26/03 A2969 RMK A01 T02560028  RH  023%=      5-min Rain = 0
KFR1 290034Z 21008KT 26/03 A2969 RMK A01 T02560030  RH  023%=      5-min Rain = 0
KFR1 290035Z 21008KT 26/04 A2969 RMK A01 T02560039  RH  025%=      5-min Rain = 0
KFR1 290036Z 21008KT 26/04 A2969 RMK A01 T02550042  RH  025%=      5-min Rain = 0
KFR1 290037Z 21010KT 26/04 A2969 RMK A01 T02550044  RH  026%=      5-min Rain = 0
KFR1 290038Z 21011KT 26/04 A2969 RMK A01 T02550038  RH  025%=      5-min Rain = 0
KFR1 290039Z 21010KT 25/04 A2969 RMK A01 T02540041  RH  025%=      5-min Rain = 0
KFR1 290040Z 22011KT 25/04 A2969 RMK A01 T02530039  RH  025%=      5-min Rain = 0
KFR1 290041Z 22010KT 25/04 A2969 RMK A01 T02530040  RH  025%=      5-min Rain = 0
KFR1 290042Z 22010KT 25/04 A2969 RMK A01 T02530042  RH  026%=      5-min Rain = 0
KFR1 290043Z 22011KT 25/04 A2969 RMK A01 T02520042  RH  026%=      5-min Rain = 0
KFR1 290044Z 22011KT 25/04 A2969 RMK A01 T02520037  RH  025%=      5-min Rain = 0
KFR1 290045Z 23012KT 25/03 A2969 RMK A01 T02510033  RH  024%=      5-min Rain = 0
KFR1 290046Z 22012KT 25/03 A2969 RMK A01 T02510032  RH  024%=      5-min Rain = 0
KFR1 290047Z 22011KT 25/03 A2969 RMK A01 T02500033  RH  024%=      5-min Rain = 0
KFR1 290048Z 22011KT 25/04 A2969 RMK A01 T02500036  RH  025%=      5-min Rain = 0
KFR1 290049Z 22012KT 25/03 A2969 RMK A01 T02490032  RH  024%=      5-min Rain = 0
KFR1 290050Z 23012G17KT 25/03 A2969 RMK A01 T02490032  RH  024%=      5-min Rain = 0
KFR1 290051Z 23012KT 25/03 A2969 RMK A01 T02490025  RH  023%=      5-min Rain = 0
KFR1 290052Z 22013KT 25/03 A2969 RMK A01 T02490027  RH  024%=      5-min Rain = 0
KFR1 290053Z 23012KT 25/03 A2969 RMK A01 T02490025  RH  023%=      5-min Rain = 0
KFR1 290054Z 22011KT 25/02 A2969 RMK A01 T02480024  RH  023%=      5-min Rain = 0
KFR1 290055Z 22013KT 25/03 A2969 RMK A01 T02470025  RH  023%=      5-min Rain = 0
KFR1 290056Z 22011KT 25/03 A2969 RMK A01 T02470028  RH  024%=      5-min Rain = 0
KFR1 290057Z 22011KT 25/03 A297 RMK A01 T02460028  RH  024%=      5-min Rain = 0
KFR1 290058Z 22010KT 25/03 A297 RMK A01 T02460030  RH  025%=      5-min Rain = 0
KFR1 290059Z 22010KT 25/03 A297 RMK A01 T02450030  RH  025%=      5-min Rain = 0
KFR1 290100Z 22010KT 24/03 A297 RMK A01 T02440032  RH  025%=      5-min Rain = 0
KFR1 290101Z 22011KT 24/03 A297 RMK A01 T02440028  RH  025%=      5-min Rain = 0
KFR1 290102Z 22010KT 24/03 A297 RMK A01 T02440032  RH  025%=      5-min Rain = 0
KFR1 290103Z 22011KT 24/03 A297 RMK A01 T02420031  RH  025%=      5-min Rain = 0
KFR1 290104Z 22011KT 24/03 A297 RMK A01 T02420028  RH  025%=      5-min Rain = 0
KFR1 290105Z 22010KT 24/03 A297 RMK A01 T02420030  RH  025%=      5-min Rain = 0
KFR1 290106Z 22010KT 24/03 A297 RMK A01 T02420029  RH  025%=      5-min Rain = 0
KFR1 290107Z 22011KT 24/03 A297 RMK A01 T02420029  RH  025%=      5-min Rain = 0
KFR1 290108Z 22009KT 24/03 A297 RMK A01 T02420030  RH  025%=      5-min Rain = 0
KFR1 290109Z 22010KT 24/03 A297 RMK A01 T02420033  RH  026%=      5-min Rain = 0
KFR1 290110Z 22010KT 24/04 A297 RMK A01 T02400036  RH  026%=      5-min Rain = 0
KFR1 290111Z 22010KT 24/04 A297 RMK A01 T02390035  RH  026%=      5-min Rain = 0
KFR1 290112Z 22010KT 24/03 A297 RMK A01 T02390034  RH  026%=      5-min Rain = 0
KFR1 290113Z 22009KT 24/04 A297 RMK A01 T02390035  RH  027%=      5-min Rain = 0
KFR1 290114Z 22009KT 24/03 A297 RMK A01 T02390033  RH  026%=      5-min Rain = 0
KFR1 290115Z 22009KT 24/04 A297 RMK A01 T02390035  RH  026%=      5-min Rain = 0
KFR1 290116Z 22010KT 24/04 A2971 RMK A01 T02380036  RH  027%=      5-min Rain = 0
KFR1 290117Z 21010KT 24/03 A2971 RMK A01 T02380032  RH  026%=      5-min Rain = 0
KFR1 290118Z 21010KT 24/03 A2971 RMK A01 T02380031  RH  026%=      5-min Rain = 0
KFR1 290119Z 22010KT 24/03 A2971 RMK A01 T02380028  RH  025%=      5-min Rain = 0
KFR1 290120Z 22009KT 24/03 A2971 RMK A01 T02380029  RH  025%=      5-min Rain = 0
KFR1 290121Z 21009KT 24/03 A2971 RMK A01 T02380030  RH  026%=      5-min Rain = 0
KFR1 290122Z 21009KT 24/03 A2971 RMK A01 T02380032  RH  026%=      5-min Rain = 0
KFR1 290123Z 21009KT 24/03 A2971 RMK A01 T02370033  RH  026%=      5-min Rain = 0
KFR1 290124Z 21009KT 24/03 A2971 RMK A01 T02360032  RH  026%=      5-min Rain = 0
KFR1 290125Z 21009KT 24/03 A2971 RMK A01 T02350031  RH  026%=      5-min Rain = 0
KFR1 290126Z 21010KT 24/03 A2971 RMK A01 T02350033  RH  027%=      5-min Rain = 0
KFR1 290127Z 21010KT 23/03 A2971 RMK A01 T02340033  RH  027%=      5-min Rain = 0
KFR1 290128Z 21010KT 23/03 A2971 RMK A01 T02340032  RH  027%=      5-min Rain = 0
KFR1 290129Z 21010KT 23/03 A2971 RMK A01 T02330034  RH  027%=      5-min Rain = 0
KFR1 290130Z 21009KT 23/04 A2971 RMK A01 T02320035  RH  028%=      5-min Rain = 0
KFR1 290131Z 21009KT 23/04 A2971 RMK A01 T02310035  RH  028%=      5-min Rain = 0
KFR1 290132Z 20009KT 23/04 A2971 RMK A01 T02310037  RH  028%=      5-min Rain = 0
KFR1 290133Z 20009KT 23/04 A2971 RMK A01 T02300039  RH  029%=      5-min Rain = 0
KFR1 290134Z 20009KT 23/04 A2971 RMK A01 T02280039  RH  029%=      5-min Rain = 0
KFR1 290135Z 20009KT 23/04 A2971 RMK A01 T02280039  RH  029%=      5-min Rain = 0
KFR1 290136Z 21009KT 23/04 A2971 RMK A01 T02270037  RH  029%=      5-min Rain = 0
KFR1 290137Z 21009KT 23/04 A2971 RMK A01 T02270037  RH  029%=      5-min Rain = 0
KFR1 290138Z 20008KT 23/04 A2971 RMK A01 T02270039  RH  029%=      5-min Rain = 0
KFR1 290139Z 21009KT 23/04 A2972 RMK A01 T02270042  RH  030%=      5-min Rain = 0
KFR1 290140Z 20008KT 23/04 A2972 RMK A01 T02260043  RH  030%=      5-min Rain = 0
KFR1 290141Z 20009KT 22/04 A2972 RMK A01 T02240044  RH  031%=      5-min Rain = 0
KFR1 290142Z 20009KT 22/05 A2972 RMK A01 T02230045  RH  031%=      5-min Rain = 0
KFR1 290143Z 20009KT 22/05 A2972 RMK A01 T02210049  RH  032%=      5-min Rain = 0
KFR1 290144Z 20009KT 22/05 A2972 RMK A01 T02190050  RH  033%=      5-min Rain = 0
KFR1 290145Z 20009KT 22/05 A2972 RMK A01 T02170050  RH  034%=      5-min Rain = 0
KFR1 290146Z 20009KT 22/05 A2972 RMK A01 T02160050  RH  034%=      5-min Rain = 0
KFR1 290147Z 20009KT 22/05 A2972 RMK A01 T02150050  RH  034%=      5-min Rain = 0
KFR1 290148Z 20009KT 21/05 A2972 RMK A01 T02140049  RH  034%=      5-min Rain = 0
KFR1 290149Z 20009KT 21/05 A2972 RMK A01 T02140050  RH  034%=      5-min Rain = 0
KFR1 290150Z 20009KT 21/05 A2972 RMK A01 T02130050  RH  034%=      5-min Rain = 0
KFR1 290151Z 20009KT 21/05 A2972 RMK A01 T02120050  RH  035%=      5-min Rain = 0
KFR1 290152Z 20009KT 21/05 A2972 RMK A01 T02120049  RH  034%=      5-min Rain = 0
KFR1 290153Z 20009KT 21/05 A2972 RMK A01 T02120050  RH  035%=      5-min Rain = 0
KFR1 290154Z 20010KT 21/05 A2972 RMK A01 T02110050  RH  035%=      5-min Rain = 0
KFR1 290155Z 20010KT 21/05 A2972 RMK A01 T02100051  RH  035%=      5-min Rain = 0
KFR1 290156Z 20010KT 21/05 A2972 RMK A01 T02090051  RH  036%=      5-min Rain = 0
KFR1 290157Z 20010KT 21/05 A2972 RMK A01 T02080052  RH  036%=      5-min Rain = 0
KFR1 290158Z 20010KT 21/05 A2972 RMK A01 T02070053  RH  036%=      5-min Rain = 0
KFR1 290159Z 20010KT 21/05 A2972 RMK A01 T02060051  RH  036%=      5-min Rain = 0
KFR1 290200Z 20010KT 21/05 A2972 RMK A01 T02060051  RH  036%=      5-min Rain = 0
KFR1 290201Z 20010KT 21/05 A2972 RMK A01 T02060052  RH  036%=      5-min Rain = 0
KFR1 290202Z 20010KT 21/05 A2972 RMK A01 T02060052  RH  036%=      5-min Rain = 0
KFR1 290203Z 20011KT 21/05 A2972 RMK A01 T02060053  RH  037%=      5-min Rain = 0
KFR1 290204Z 20010KT 21/05 A2972 RMK A01 T02060054  RH  037%=      5-min Rain = 0
KFR1 290205Z 20010KT 21/05 A2973 RMK A01 T02050053  RH  037%=      5-min Rain = 0
KFR1 290206Z 20011KT 21/05 A2973 RMK A01 T02050053  RH  037%=      5-min Rain = 0
KFR1 290207Z 20011KT 21/05 A2973 RMK A01 T02050053  RH  037%=      5-min Rain = 0
KFR1 290208Z 20011KT 21/05 A2973 RMK A01 T02050054  RH  037%=      5-min Rain = 0
KFR1 290209Z 20011KT 20/06 A2973 RMK A01 T02040056  RH  038%=      5-min Rain = 0
KFR1 290210Z 20011KT 20/06 A2973 RMK A01 T02030056  RH  038%=      5-min Rain = 0
KFR1 290211Z 20010KT 20/06 A2973 RMK A01 T02020056  RH  038%=      5-min Rain = 0
KFR1 290212Z 20011KT 20/05 A2973 RMK A01 T02020053  RH  038%=      5-min Rain = 0
KFR1 290213Z 20011KT 20/05 A2973 RMK A01 T02020054  RH  038%=      5-min Rain = 0
KFR1 290214Z 20011KT 20/06 A2973 RMK A01 T02020055  RH  038%=      5-min Rain = 0
KFR1 290215Z 21011KT 20/05 A2973 RMK A01 T02010052  RH  038%=      5-min Rain = 0
KFR1 290216Z 20010KT 20/05 A2973 RMK A01 T02020051  RH  037%=      5-min Rain = 0
KFR1 290217Z 20011KT 20/05 A2973 RMK A01 T02020052  RH  037%=      5-min Rain = 0
KFR1 290218Z 20011KT 20/05 A2973 RMK A01 T02020052  RH  037%=      5-min Rain = 0
KFR1 290219Z 21011KT 20/05 A2973 RMK A01 T02020052  RH  037%=      5-min Rain = 0
KFR1 290220Z 20010KT 20/05 A2973 RMK A01 T02020052  RH  037%=      5-min Rain = 0
KFR1 290221Z 20010KT 20/05 A2973 RMK A01 T02010053  RH  038%=      5-min Rain = 0
KFR1 290222Z 20011KT 20/05 A2973 RMK A01 T01990053  RH  038%=      5-min Rain = 0
KFR1 290223Z 20011KT 20/05 A2973 RMK A01 T01980054  RH  039%=      5-min Rain = 0
KFR1 290224Z 20011KT 20/05 A2973 RMK A01 T01980053  RH  039%=      5-min Rain = 0
KFR1 290225Z 20011KT 20/05 A2973 RMK A01 T01980053  RH  039%=      5-min Rain = 0
KFR1 290226Z 20011KT 20/05 A2973 RMK A01 T01970051  RH  038%=      5-min Rain = 0
KFR1 290227Z 21011KT 20/05 A2973 RMK A01 T01980049  RH  038%=      5-min Rain = 0
KFR1 290228Z 21011KT 20/05 A2973 RMK A01 T01990048  RH  037%=      5-min Rain = 0
KFR1 290229Z 20011KT 20/05 A2973 RMK A01 T01990048  RH  037%=      5-min Rain = 0
KFR1 290230Z 21011KT 20/05 A2973 RMK A01 T01990046  RH  037%=      5-min Rain = 0
KFR1 290231Z 21011KT 20/04 A2973 RMK A01 T02000044  RH  036%=      5-min Rain = 0
KFR1 290232Z 21011KT 20/04 A2973 RMK A01 T02000042  RH  035%=      5-min Rain = 0
KFR1 290233Z 21012KT 20/04 A2973 RMK A01 T02010040  RH  034%=      5-min Rain = 0
KFR1 290234Z 21011KT 20/04 A2973 RMK A01 T02030038  RH  034%=      5-min Rain = 0
KFR1 290235Z 21012KT 21/04 A2973 RMK A01 T02050037  RH  033%=      5-min Rain = 0
KFR1 290236Z 21011KT 21/04 A2973 RMK A01 T02050036  RH  033%=      5-min Rain = 0
KFR1 290237Z 21011KT 21/04 A2973 RMK A01 T02050035  RH  033%=      5-min Rain = 0
KFR1 290238Z 21012KT 21/04 A2974 RMK A01 T02050036  RH  033%=      5-min Rain = 0
KFR1 290239Z 21013KT 21/03 A2974 RMK A01 T02050033  RH  032%=      5-min Rain = 0
KFR1 290240Z 21012KT 21/03 A2974 RMK A01 T02060029  RH  031%=      5-min Rain = 0
KFR1 290241Z 21012KT 21/03 A2974 RMK A01 T02070030  RH  031%=      5-min Rain = 0
KFR1 290242Z 21012KT 21/03 A2974 RMK A01 T02070029  RH  031%=      5-min Rain = 0
KFR1 290243Z 21011KT 21/03 A2974 RMK A01 T02080028  RH  030%=      5-min Rain = 0
KFR1 290244Z 21012KT 21/03 A2974 RMK A01 T02080026  RH  030%=      5-min Rain = 0
KFR1 290245Z 21012KT 21/03 A2974 RMK A01 T02080025  RH  030%=      5-min Rain = 0
KFR1 290246Z 21012KT 21/03 A2974 RMK A01 T02080025  RH  030%=      5-min Rain = 0
KFR1 290247Z 21012KT 21/02 A2974 RMK A01 T02090024  RH  029%=      5-min Rain = 0
KFR1 290248Z 21012KT 21/02 A2974 RMK A01 T02090022  RH  029%=      5-min Rain = 0
KFR1 290249Z 21012KT 21/02 A2974 RMK A01 T02090022  RH  029%=      5-min Rain = 0
KFR1 290250Z 21012KT 21/02 A2974 RMK A01 T02090021  RH  029%=      5-min Rain = 0
KFR1 290251Z 22013KT 21/02 A2974 RMK A01 T02080019  RH  028%=      5-min Rain = 0
KFR1 290252Z 21012KT 21/02 A2974 RMK A01 T02090017  RH  028%=      5-min Rain = 0
KFR1 290253Z 22012KT 21/02 A2974 RMK A01 T02090017  RH  028%=      5-min Rain = 0
KFR1 290254Z 21012KT 21/02 A2974 RMK A01 T02090016  RH  028%=      5-min Rain = 0
KFR1 290255Z 21013KT 21/02 A2974 RMK A01 T02080015  RH  028%=      5-min Rain = 0
KFR1 290256Z 21013KT 21/01 A2974 RMK A01 T02080013  RH  027%=      5-min Rain = 0
KFR1 290257Z 22012KT 21/01 A2974 RMK A01 T02080013  RH  027%=      5-min Rain = 0
KFR1 290258Z 21012KT 21/01 A2974 RMK A01 T02080013  RH  027%=      5-min Rain = 0
KFR1 290259Z 21012KT 21/01 A2974 RMK A01 T02080013  RH  027%=      5-min Rain = 0
KFR1 290300Z 22012KT 21/01 A2974 RMK A01 T02080013  RH  027%=      5-min Rain = 0
KFR1 290301Z 21012KT 21/01 A2974 RMK A01 T02080011  RH  027%=      5-min Rain = 0
KFR1 290302Z 21011KT 21/01 A2974 RMK A01 T02080012  RH  027%=      5-min Rain = 0
KFR1 290303Z 21012KT 21/01 A2974 RMK A01 T02080012  RH  027%=      5-min Rain = 0
KFR1 290304Z 21012KT 21/01 A2974 RMK A01 T02080012  RH  027%=      5-min Rain = 0
KFR1 290305Z 22012KT 21/01 A2975 RMK A01 T02070013  RH  027%=      5-min Rain = 0
KFR1 290311Z 22013KT 21/01 A2975 RMK A01 T02060010  RH  027%=      5-min Rain = 0
KFR1 290312Z 22013KT 21/01 A2975 RMK A01 T02050011  RH  027%=      5-min Rain = 0
KFR1 290313Z 22012KT 21/01 A2975 RMK A01 T02050009  RH  027%=      5-min Rain = 0
KFR1 290314Z 22013KT 21/01 A2975 RMK A01 T02060008  RH  027%=      5-min Rain = 0
KFR1 290315Z 22013KT 21/01 A2975 RMK A01 T02060010  RH  027%=      5-min Rain = 0
KFR1 290316Z 22013KT 21/01 A2975 RMK A01 T02050009  RH  027%=      5-min Rain = 0
KFR1 290317Z 22013KT 21/01 A2975 RMK A01 T02060007  RH  027%=      5-min Rain = 0
KFR1 290318Z 22013KT 21/01 A2975 RMK A01 T02060007  RH  027%=      5-min Rain = 0
KFR1 290319Z 22012KT 21/01 A2975 RMK A01 T02060008  RH  027%=      5-min Rain = 0
KFR1 290320Z 22013KT 21/01 A2975 RMK A01 T02060008  RH  027%=      5-min Rain = 0
KFR1 290321Z 22013KT 21/01 A2975 RMK A01 T02050008  RH  027%=      5-min Rain = 0
KFR1 290322Z 22013KT 21/01 A2975 RMK A01 T02060008  RH  027%=      5-min Rain = 0
KFR1 290323Z 22012KT 21/01 A2975 RMK A01 T02050007  RH  027%=      5-min Rain = 0
KFR1 290324Z 22013KT 21/01 A2975 RMK A01 T02050008  RH  027%=      5-min Rain = 0
KFR1 290325Z 22012KT 21/01 A2975 RMK A01 T02050009  RH  027%=      5-min Rain = 0
KFR1 290326Z 22013KT 20/01 A2975 RMK A01 T02040008  RH  027%=      5-min Rain = 0
KFR1 290327Z 22012KT 20/01 A2975 RMK A01 T02040008  RH  027%=      5-min Rain = 0
KFR1 290328Z 21012KT 20/01 A2975 RMK A01 T02040009  RH  027%=      5-min Rain = 0
KFR1 290329Z 22012KT 20/01 A2975 RMK A01 T02030009  RH  027%=      5-min Rain = 0
KFR1 290330Z 22012KT 20/01 A2975 RMK A01 T02020008  RH  027%=      5-min Rain = 0
KFR1 290331Z 22013KT 20/01 A2975 RMK A01 T02020008  RH  027%=      5-min Rain = 0
KFR1 290332Z 22013KT 20/01 A2975 RMK A01 T02020007  RH  027%=      5-min Rain = 0
KFR1 290333Z 22013KT 20/01 A2975 RMK A01 T02020007  RH  027%=      5-min Rain = 0
KFR1 290334Z 22014KT 20/01 A2975 RMK A01 T02020008  RH  027%=      5-min Rain = 0
KFR1 290335Z 22014KT 20/01 A2976 RMK A01 T02020006  RH  027%=      5-min Rain = 0
KFR1 290336Z 21013KT 20/01 A2976 RMK A01 T02020006  RH  027%=      5-min Rain = 0
KFR1 290337Z 22013KT 20/01 A2976 RMK A01 T02020009  RH  028%=      5-min Rain = 0
KFR1 290338Z 22013KT 20/01 A2976 RMK A01 T02010008  RH  027%=      5-min Rain = 0
KFR1 290339Z 21014KT 20/01 A2976 RMK A01 T02010006  RH  027%=      5-min Rain = 0
KFR1 290340Z 22014KT 20/00 A2976 RMK A01 T02020004  RH  027%=      5-min Rain = 0
KFR1 290341Z 22013KT 20/01 A2976 RMK A01 T02020005  RH  027%=      5-min Rain = 0
KFR1 290342Z 22014KT 20/01 A2976 RMK A01 T02020005  RH  027%=      5-min Rain = 0
KFR1 290343Z 22013KT 20/00 A2976 RMK A01 T02020004  RH  027%=      5-min Rain = 0
KFR1 290344Z 22014KT 20/00 A2976 RMK A01 T02030001  RH  026%=      5-min Rain = 0
KFR1 290345Z 22013KT 21/00 A2976 RMK A01 T02050001  RH  026%=      5-min Rain = 0
KFR1 290346Z 22013KT 21/00 A2976 RMK A01 T02050003  RH  026%=      5-min Rain = 0
KFR1 290347Z 22013KT 21/00 A2976 RMK A01 T02050001  RH  026%=      5-min Rain = 0
KFR1 290348Z 22014KT 21/00 A2976 RMK A01 T020500-0  RH  025%=      5-min Rain = 0
KFR1 290349Z 22013KT 21/00 A2976 RMK A01 T02060001  RH  025%=      5-min Rain = 0
KFR1 290350Z 22013KT 21/00 A2976 RMK A01 T02050003  RH  026%=      5-min Rain = 0
KFR1 290351Z 22012KT 20/00 A2976 RMK A01 T02040001  RH  026%=      5-min Rain = 0
KFR1 290352Z 22013KT 20/00 A2976 RMK A01 T02040002  RH  026%=      5-min Rain = 0
KFR1 290353Z 22013KT 20/00 A2976 RMK A01 T02040003  RH  026%=      5-min Rain = 0
KFR1 290354Z 22013KT 20/00 A2976 RMK A01 T02030003  RH  026%=      5-min Rain = 0
KFR1 290355Z 22013KT 20/00 A2976 RMK A01 T02020003  RH  026%=      5-min Rain = 0
KFR1 290356Z 22012KT 20/01 A2977 RMK A01 T02010005  RH  027%=      5-min Rain = 0
KFR1 290357Z 22013KT 20/01 A2977 RMK A01 T02000006  RH  027%=      5-min Rain = 0
KFR1 290358Z 22012KT 20/01 A2977 RMK A01 T01990008  RH  028%=      5-min Rain = 0
KFR1 290359Z 22012KT 20/01 A2977 RMK A01 T01980007  RH  028%=      5-min Rain = 0
KFR1 290400Z 22012KT 20/01 A2977 RMK A01 T01970008  RH  028%=      5-min Rain = 0
KFR1 290401Z 22012KT 20/01 A2977 RMK A01 T01970007  RH  028%=      5-min Rain = 0
KFR1 290402Z 22012KT 20/01 A2977 RMK A01 T01970006  RH  028%=      5-min Rain = 0
KFR1 290403Z 22013KT 20/01 A2977 RMK A01 T01970005  RH  028%=      5-min Rain = 0
KFR1 290404Z 22012KT 20/01 A2977 RMK A01 T01970006  RH  028%=      5-min Rain = 0
KFR1 290405Z 22012KT 20/01 A2977 RMK A01 T01970005  RH  028%=      5-min Rain = 0
KFR1 290406Z 22012KT 20/01 A2977 RMK A01 T01980007  RH  028%=      5-min Rain = 0
KFR1 290407Z 22012KT 20/01 A2977 RMK A01 T01970006  RH  028%=      5-min Rain = 0
KFR1 290408Z 22012KT 20/01 A2977 RMK A01 T01980006  RH  028%=      5-min Rain = 0
KFR1 290409Z 22012KT 20/01 A2977 RMK A01 T01980007  RH  028%=      5-min Rain = 0
KFR1 290410Z 22013KT 20/01 A2977 RMK A01 T01970008  RH  028%=      5-min Rain = 0
KFR1 290411Z 22013KT 20/01 A2977 RMK A01 T01970007  RH  028%=      5-min Rain = 0
KFR1 290412Z 22012KT 20/01 A2977 RMK A01 T01960007  RH  028%=      5-min Rain = 0
KFR1 290413Z 22013KT 20/01 A2977 RMK A01 T01960009  RH  029%=      5-min Rain = 0
KFR1 290414Z 22013KT 20/01 A2977 RMK A01 T01960007  RH  028%=      5-min Rain = 0
KFR1 290415Z 22013KT 20/01 A2977 RMK A01 T01960006  RH  028%=      5-min Rain = 0
KFR1 290416Z 22013KT 20/01 A2977 RMK A01 T01960005  RH  028%=      5-min Rain = 0
KFR1 290417Z 22014KT 20/00 A2977 RMK A01 T01980004  RH  027%=      5-min Rain = 0
KFR1 290418Z 22013KT 20/00 A2977 RMK A01 T01980004  RH  027%=      5-min Rain = 0
KFR1 290419Z 22013KT 20/00 A2977 RMK A01 T01990003  RH  027%=      5-min Rain = 0
KFR1 290420Z 22013KT 20/00 A2977 RMK A01 T01990003  RH  027%=      5-min Rain = 0
KFR1 290421Z 22013KT 20/00 A2977 RMK A01 T02000004  RH  027%=      5-min Rain = 0
KFR1 290422Z 22013KT 20/00 A2977 RMK A01 T02000004  RH  027%=      5-min Rain = 0
KFR1 290423Z 22012KT 20/01 A2977 RMK A01 T02000005  RH  027%=      5-min Rain = 0
KFR1 290424Z 22012KT 20/01 A2977 RMK A01 T01990006  RH  027%=      5-min Rain = 0
KFR1 290425Z 22012KT 20/01 A2977 RMK A01 T01970009  RH  028%=      5-min Rain = 0
KFR1 290426Z 22012KT 20/01 A2977 RMK A01 T01960009  RH  029%=      5-min Rain = 0
KFR1 290427Z 22012KT 20/01 A2977 RMK A01 T01950008  RH  029%=      5-min Rain = 0
KFR1 290428Z 22011KT 20/01 A2977 RMK A01 T01950007  RH  028%=      5-min Rain = 0
KFR1 290429Z 22012KT 20/01 A2977 RMK A01 T01950008  RH  029%=      5-min Rain = 0
KFR1 290430Z 22011KT 20/01 A2977 RMK A01 T01950008  RH  029%=      5-min Rain = 0
KFR1 290431Z 22011KT 19/01 A2977 RMK A01 T01940008  RH  029%=      5-min Rain = 0
KFR1 290432Z 22011KT 19/01 A2977 RMK A01 T01940009  RH  029%=      5-min Rain = 0
KFR1 290433Z 22011KT 19/01 A2977 RMK A01 T01930010  RH  029%=      5-min Rain = 0
KFR1 290434Z 22011KT 19/01 A2977 RMK A01 T01920010  RH  030%=      5-min Rain = 0
KFR1 290435Z 22011KT 19/01 A2977 RMK A01 T01920011  RH  030%=      5-min Rain = 0
KFR1 290436Z 22012KT 19/01 A2977 RMK A01 T01910011  RH  030%=      5-min Rain = 0
KFR1 290437Z 22012KT 19/01 A2977 RMK A01 T01910010  RH  030%=      5-min Rain = 0
KFR1 290438Z 23012KT 19/01 A2977 RMK A01 T01910011  RH  030%=      5-min Rain = 0
KFR1 290439Z 22011KT 19/01 A2977 RMK A01 T01910012  RH  030%=      5-min Rain = 0
KFR1 290440Z 22012KT 19/01 A2977 RMK A01 T01900014  RH  031%=      5-min Rain = 0
KFR1 290441Z 22011KT 19/01 A2977 RMK A01 T01890012  RH  030%=      5-min Rain = 0
KFR1 290442Z 22011KT 19/01 A2977 RMK A01 T01890014  RH  031%=      5-min Rain = 0
KFR1 290443Z 23012KT 19/01 A2977 RMK A01 T01880013  RH  031%=      5-min Rain = 0
KFR1 290444Z 23012KT 19/01 A2977 RMK A01 T01890012  RH  031%=      5-min Rain = 0
KFR1 290445Z 23011KT 19/01 A2977 RMK A01 T01900012  RH  030%=      5-min Rain = 0
KFR1 290446Z 23011KT 19/01 A2977 RMK A01 T01900013  RH  031%=      5-min Rain = 0
KFR1 290447Z 23011KT 19/01 A2977 RMK A01 T01900013  RH  031%=      5-min Rain = 0
KFR1 290448Z 23011KT 19/01 A2977 RMK A01 T01900012  RH  030%=      5-min Rain = 0
KFR1 290449Z 23011KT 19/01 A2978 RMK A01 T01910010  RH  030%=      5-min Rain = 0
KFR1 290450Z 23010KT 19/01 A2978 RMK A01 T01920011  RH  030%=      5-min Rain = 0
KFR1 290451Z 24011KT 19/01 A2978 RMK A01 T01920012  RH  030%=      5-min Rain = 0
KFR1 290452Z 24010KT 19/01 A2978 RMK A01 T01920010  RH  030%=      5-min Rain = 0
KFR1 290453Z 24009KT 19/01 A2978 RMK A01 T01920011  RH  030%=      5-min Rain = 0
KFR1 290454Z 24008KT 19/01 A2978 RMK A01 T01910013  RH  030%=      5-min Rain = 0
KFR1 290455Z 24010KT 19/01 A2978 RMK A01 T01910013  RH  030%=      5-min Rain = 0
KFR1 290456Z 24009KT 19/01 A2978 RMK A01 T01910012  RH  030%=      5-min Rain = 0
KFR1 290457Z 24008KT 19/01 A2978 RMK A01 T01910012  RH  030%=      5-min Rain = 0
KFR1 290458Z 24008KT 19/01 A2978 RMK A01 T01910013  RH  030%=      5-min Rain = 0
KFR1 290459Z 24008KT 19/01 A2978 RMK A01 T01900012  RH  030%=      5-min Rain = 0

Page generated in 0.0724 seconds.